<?xml version="1.0" encoding="UTF-8" standalone="no" ?>
<gpx xmlns="http://www.topografix.com/GPX/1/1" xmlns:xsi="http://www.w3.org/2001/XMLSchema-instance" xsi:schemaLocation="http://www.topografix.com/GPX/1/1 http://www.topografix.com/GPX/1/1/gpx.xsd" version="1.1" creator="VisuGPX - https://www.visugpx.com">
  <metadata>
    <name>ST CHRISTOPHE -CANTUEL -VALADY</name>
    <desc><![CDATA[longueur 13Km
montée vers valady costeau]]></desc>
  </metadata>
  <wpt lat="44.47116" lon="2.4109">
    <ele>334</ele>
  </wpt>
  <wpt lat="44.47139" lon="2.41043">
    <ele>334</ele>
  </wpt>
  <trk>
    <name><![CDATA[ST CHRISTOPHE -CANTUEL -VALADY_1]]></name>
    <trkseg>
      <trkpt lat="44.47116" lon="2.4109">
        <ele>334</ele>
        <time>2008-10-07T07:19:52Z</time>
      </trkpt>
      <trkpt lat="44.47158" lon="2.41083">
        <ele>396</ele>
        <time>2008-10-07T07:20:06Z</time>
      </trkpt>
      <trkpt lat="44.47168" lon="2.41076">
        <ele>422</ele>
        <time>2008-10-07T07:20:07Z</time>
      </trkpt>
      <trkpt lat="44.47146" lon="2.41082">
        <ele>392</ele>
        <time>2008-10-07T07:20:07Z</time>
      </trkpt>
      <trkpt lat="44.47129" lon="2.41085">
        <ele>362</ele>
        <time>2008-10-07T07:20:08Z</time>
      </trkpt>
      <trkpt lat="44.47141" lon="2.41083">
        <ele>384</ele>
        <time>2008-10-07T07:20:13Z</time>
      </trkpt>
      <trkpt lat="44.47131" lon="2.41086">
        <ele>375</ele>
        <time>2008-10-07T07:20:22Z</time>
      </trkpt>
      <trkpt lat="44.47122" lon="2.41087">
        <ele>354</ele>
        <time>2008-10-07T07:20:36Z</time>
      </trkpt>
      <trkpt lat="44.47124" lon="2.41099">
        <ele>348</ele>
        <time>2008-10-07T07:21:01Z</time>
      </trkpt>
      <trkpt lat="44.47115" lon="2.41101">
        <ele>339</ele>
        <time>2008-10-07T07:21:12Z</time>
      </trkpt>
      <trkpt lat="44.47124" lon="2.41099">
        <ele>346</ele>
        <time>2008-10-07T07:21:53Z</time>
      </trkpt>
      <trkpt lat="44.47128" lon="2.41111">
        <ele>346</ele>
        <time>2008-10-07T07:24:16Z</time>
      </trkpt>
      <trkpt lat="44.47119" lon="2.41108">
        <ele>339</ele>
        <time>2008-10-07T07:25:41Z</time>
      </trkpt>
      <trkpt lat="44.47128" lon="2.4111">
        <ele>345</ele>
        <time>2008-10-07T07:25:59Z</time>
      </trkpt>
      <trkpt lat="44.47131" lon="2.41098">
        <ele>345</ele>
        <time>2008-10-07T07:26:18Z</time>
      </trkpt>
      <trkpt lat="44.47124" lon="2.41089">
        <ele>345</ele>
        <time>2008-10-07T07:26:53Z</time>
      </trkpt>
      <trkpt lat="44.47115" lon="2.41087">
        <ele>345</ele>
        <time>2008-10-07T07:27:06Z</time>
      </trkpt>
      <trkpt lat="44.47107" lon="2.41084">
        <ele>345</ele>
        <time>2008-10-07T07:27:15Z</time>
      </trkpt>
      <trkpt lat="44.47098" lon="2.41084">
        <ele>351</ele>
        <time>2008-10-07T07:27:42Z</time>
      </trkpt>
      <trkpt lat="44.47089" lon="2.41081">
        <ele>351</ele>
        <time>2008-10-07T07:27:49Z</time>
      </trkpt>
      <trkpt lat="44.47078" lon="2.41079">
        <ele>351</ele>
        <time>2008-10-07T07:27:55Z</time>
      </trkpt>
      <trkpt lat="44.47068" lon="2.41077">
        <ele>343</ele>
        <time>2008-10-07T07:28:02Z</time>
      </trkpt>
      <trkpt lat="44.4706" lon="2.41082">
        <ele>343</ele>
        <time>2008-10-07T07:28:09Z</time>
      </trkpt>
      <trkpt lat="44.47051" lon="2.41086">
        <ele>338</ele>
        <time>2008-10-07T07:28:15Z</time>
      </trkpt>
      <trkpt lat="44.47043" lon="2.41091">
        <ele>338</ele>
        <time>2008-10-07T07:28:22Z</time>
      </trkpt>
      <trkpt lat="44.47034" lon="2.41088">
        <ele>338</ele>
        <time>2008-10-07T07:28:29Z</time>
      </trkpt>
      <trkpt lat="44.47024" lon="2.41088">
        <ele>338</ele>
        <time>2008-10-07T07:28:38Z</time>
      </trkpt>
      <trkpt lat="44.47016" lon="2.41095">
        <ele>338</ele>
        <time>2008-10-07T07:28:46Z</time>
      </trkpt>
      <trkpt lat="44.4701" lon="2.41104">
        <ele>338</ele>
        <time>2008-10-07T07:28:54Z</time>
      </trkpt>
      <trkpt lat="44.47001" lon="2.41109">
        <ele>338</ele>
        <time>2008-10-07T07:29:01Z</time>
      </trkpt>
      <trkpt lat="44.46992" lon="2.41104">
        <ele>338</ele>
        <time>2008-10-07T07:29:09Z</time>
      </trkpt>
      <trkpt lat="44.46983" lon="2.41101">
        <ele>346</ele>
        <time>2008-10-07T07:29:19Z</time>
      </trkpt>
      <trkpt lat="44.46974" lon="2.41094">
        <ele>346</ele>
        <time>2008-10-07T07:29:28Z</time>
      </trkpt>
      <trkpt lat="44.46965" lon="2.41093">
        <ele>346</ele>
        <time>2008-10-07T07:29:35Z</time>
      </trkpt>
      <trkpt lat="44.46956" lon="2.41089">
        <ele>346</ele>
        <time>2008-10-07T07:29:44Z</time>
      </trkpt>
      <trkpt lat="44.46947" lon="2.41084">
        <ele>341</ele>
        <time>2008-10-07T07:29:51Z</time>
      </trkpt>
      <trkpt lat="44.46939" lon="2.41078">
        <ele>341</ele>
        <time>2008-10-07T07:29:58Z</time>
      </trkpt>
      <trkpt lat="44.4693" lon="2.41072">
        <ele>341</ele>
        <time>2008-10-07T07:30:06Z</time>
      </trkpt>
      <trkpt lat="44.46922" lon="2.41066">
        <ele>334</ele>
        <time>2008-10-07T07:30:13Z</time>
      </trkpt>
      <trkpt lat="44.46913" lon="2.41062">
        <ele>334</ele>
        <time>2008-10-07T07:30:22Z</time>
      </trkpt>
      <trkpt lat="44.46905" lon="2.41058">
        <ele>340</ele>
        <time>2008-10-07T07:30:31Z</time>
      </trkpt>
      <trkpt lat="44.46896" lon="2.41051">
        <ele>340</ele>
        <time>2008-10-07T07:30:39Z</time>
      </trkpt>
      <trkpt lat="44.46887" lon="2.41047">
        <ele>340</ele>
        <time>2008-10-07T07:30:47Z</time>
      </trkpt>
      <trkpt lat="44.4688" lon="2.4104">
        <ele>340</ele>
        <time>2008-10-07T07:30:54Z</time>
      </trkpt>
      <trkpt lat="44.46871" lon="2.41035">
        <ele>340</ele>
        <time>2008-10-07T07:31:01Z</time>
      </trkpt>
      <trkpt lat="44.46862" lon="2.41032">
        <ele>340</ele>
        <time>2008-10-07T07:31:10Z</time>
      </trkpt>
      <trkpt lat="44.46855" lon="2.41025">
        <ele>340</ele>
        <time>2008-10-07T07:31:18Z</time>
      </trkpt>
      <trkpt lat="44.46855" lon="2.41013">
        <ele>345</ele>
        <time>2008-10-07T07:31:26Z</time>
      </trkpt>
      <trkpt lat="44.4686" lon="2.41002">
        <ele>345</ele>
        <time>2008-10-07T07:31:34Z</time>
      </trkpt>
      <trkpt lat="44.46866" lon="2.40992">
        <ele>340</ele>
        <time>2008-10-07T07:31:42Z</time>
      </trkpt>
      <trkpt lat="44.46873" lon="2.40983">
        <ele>340</ele>
        <time>2008-10-07T07:31:50Z</time>
      </trkpt>
      <trkpt lat="44.4688" lon="2.40976">
        <ele>340</ele>
        <time>2008-10-07T07:31:57Z</time>
      </trkpt>
      <trkpt lat="44.46887" lon="2.40967">
        <ele>340</ele>
        <time>2008-10-07T07:32:05Z</time>
      </trkpt>
      <trkpt lat="44.46892" lon="2.40957">
        <ele>340</ele>
        <time>2008-10-07T07:32:13Z</time>
      </trkpt>
      <trkpt lat="44.46898" lon="2.40948">
        <ele>340</ele>
        <time>2008-10-07T07:32:21Z</time>
      </trkpt>
      <trkpt lat="44.46905" lon="2.40939">
        <ele>340</ele>
        <time>2008-10-07T07:32:29Z</time>
      </trkpt>
      <trkpt lat="44.46909" lon="2.40927">
        <ele>334</ele>
        <time>2008-10-07T07:32:37Z</time>
      </trkpt>
      <trkpt lat="44.46909" lon="2.40915">
        <ele>334</ele>
        <time>2008-10-07T07:32:46Z</time>
      </trkpt>
      <trkpt lat="44.46903" lon="2.40905">
        <ele>340</ele>
        <time>2008-10-07T07:32:56Z</time>
      </trkpt>
      <trkpt lat="44.46898" lon="2.40895">
        <ele>340</ele>
        <time>2008-10-07T07:33:05Z</time>
      </trkpt>
      <trkpt lat="44.46891" lon="2.40886">
        <ele>340</ele>
        <time>2008-10-07T07:33:12Z</time>
      </trkpt>
      <trkpt lat="44.46884" lon="2.40875">
        <ele>340</ele>
        <time>2008-10-07T07:33:21Z</time>
      </trkpt>
      <trkpt lat="44.46876" lon="2.40865">
        <ele>340</ele>
        <time>2008-10-07T07:33:29Z</time>
      </trkpt>
      <trkpt lat="44.46869" lon="2.40856">
        <ele>345</ele>
        <time>2008-10-07T07:33:38Z</time>
      </trkpt>
      <trkpt lat="44.46862" lon="2.40847">
        <ele>345</ele>
        <time>2008-10-07T07:33:46Z</time>
      </trkpt>
      <trkpt lat="44.46855" lon="2.40837">
        <ele>345</ele>
        <time>2008-10-07T07:33:54Z</time>
      </trkpt>
      <trkpt lat="44.46848" lon="2.40828">
        <ele>345</ele>
        <time>2008-10-07T07:34:01Z</time>
      </trkpt>
      <trkpt lat="44.4684" lon="2.40821">
        <ele>345</ele>
        <time>2008-10-07T07:34:07Z</time>
      </trkpt>
      <trkpt lat="44.46834" lon="2.40811">
        <ele>345</ele>
        <time>2008-10-07T07:34:14Z</time>
      </trkpt>
      <trkpt lat="44.46827" lon="2.40802">
        <ele>345</ele>
        <time>2008-10-07T07:34:21Z</time>
      </trkpt>
      <trkpt lat="44.4682" lon="2.40793">
        <ele>345</ele>
        <time>2008-10-07T07:34:29Z</time>
      </trkpt>
      <trkpt lat="44.46813" lon="2.40782">
        <ele>345</ele>
        <time>2008-10-07T07:34:37Z</time>
      </trkpt>
      <trkpt lat="44.46807" lon="2.40773">
        <ele>345</ele>
        <time>2008-10-07T07:34:45Z</time>
      </trkpt>
      <trkpt lat="44.468" lon="2.40765">
        <ele>345</ele>
        <time>2008-10-07T07:34:53Z</time>
      </trkpt>
      <trkpt lat="44.46794" lon="2.40755">
        <ele>345</ele>
        <time>2008-10-07T07:35:01Z</time>
      </trkpt>
      <trkpt lat="44.46788" lon="2.40746">
        <ele>345</ele>
        <time>2008-10-07T07:35:11Z</time>
      </trkpt>
      <trkpt lat="44.46782" lon="2.40735">
        <ele>345</ele>
        <time>2008-10-07T07:35:18Z</time>
      </trkpt>
      <trkpt lat="44.46775" lon="2.40726">
        <ele>345</ele>
        <time>2008-10-07T07:35:25Z</time>
      </trkpt>
      <trkpt lat="44.46766" lon="2.40721">
        <ele>345</ele>
        <time>2008-10-07T07:35:33Z</time>
      </trkpt>
      <trkpt lat="44.46758" lon="2.40714">
        <ele>345</ele>
        <time>2008-10-07T07:35:41Z</time>
      </trkpt>
      <trkpt lat="44.4675" lon="2.40711">
        <ele>345</ele>
        <time>2008-10-07T07:35:48Z</time>
      </trkpt>
      <trkpt lat="44.46741" lon="2.40706">
        <ele>345</ele>
        <time>2008-10-07T07:35:56Z</time>
      </trkpt>
      <trkpt lat="44.46733" lon="2.40702">
        <ele>345</ele>
        <time>2008-10-07T07:36:04Z</time>
      </trkpt>
      <trkpt lat="44.46724" lon="2.407">
        <ele>345</ele>
        <time>2008-10-07T07:36:11Z</time>
      </trkpt>
      <trkpt lat="44.46715" lon="2.40701">
        <ele>345</ele>
        <time>2008-10-07T07:36:19Z</time>
      </trkpt>
      <trkpt lat="44.46706" lon="2.40703">
        <ele>345</ele>
        <time>2008-10-07T07:36:28Z</time>
      </trkpt>
      <trkpt lat="44.46697" lon="2.40705">
        <ele>345</ele>
        <time>2008-10-07T07:36:36Z</time>
      </trkpt>
      <trkpt lat="44.46688" lon="2.40707">
        <ele>345</ele>
        <time>2008-10-07T07:36:44Z</time>
      </trkpt>
      <trkpt lat="44.46678" lon="2.40711">
        <ele>345</ele>
        <time>2008-10-07T07:36:52Z</time>
      </trkpt>
      <trkpt lat="44.46669" lon="2.40714">
        <ele>345</ele>
        <time>2008-10-07T07:37:00Z</time>
      </trkpt>
      <trkpt lat="44.4666" lon="2.40716">
        <ele>345</ele>
        <time>2008-10-07T07:37:07Z</time>
      </trkpt>
      <trkpt lat="44.46651" lon="2.40719">
        <ele>345</ele>
        <time>2008-10-07T07:37:16Z</time>
      </trkpt>
      <trkpt lat="44.46642" lon="2.40722">
        <ele>345</ele>
        <time>2008-10-07T07:37:24Z</time>
      </trkpt>
      <trkpt lat="44.46633" lon="2.40728">
        <ele>345</ele>
        <time>2008-10-07T07:37:32Z</time>
      </trkpt>
      <trkpt lat="44.46624" lon="2.40731">
        <ele>345</ele>
        <time>2008-10-07T07:37:40Z</time>
      </trkpt>
      <trkpt lat="44.46616" lon="2.40734">
        <ele>345</ele>
        <time>2008-10-07T07:37:48Z</time>
      </trkpt>
      <trkpt lat="44.46607" lon="2.4074">
        <ele>345</ele>
        <time>2008-10-07T07:37:59Z</time>
      </trkpt>
      <trkpt lat="44.46598" lon="2.40743">
        <ele>345</ele>
        <time>2008-10-07T07:38:08Z</time>
      </trkpt>
      <trkpt lat="44.46589" lon="2.40749">
        <ele>351</ele>
        <time>2008-10-07T07:38:17Z</time>
      </trkpt>
      <trkpt lat="44.4658" lon="2.40755">
        <ele>351</ele>
        <time>2008-10-07T07:38:28Z</time>
      </trkpt>
      <trkpt lat="44.4657" lon="2.40758">
        <ele>351</ele>
        <time>2008-10-07T07:38:37Z</time>
      </trkpt>
      <trkpt lat="44.46562" lon="2.40763">
        <ele>351</ele>
        <time>2008-10-07T07:38:45Z</time>
      </trkpt>
      <trkpt lat="44.46554" lon="2.40768">
        <ele>351</ele>
        <time>2008-10-07T07:38:52Z</time>
      </trkpt>
      <trkpt lat="44.46545" lon="2.40773">
        <ele>351</ele>
        <time>2008-10-07T07:39:02Z</time>
      </trkpt>
      <trkpt lat="44.46537" lon="2.40777">
        <ele>351</ele>
        <time>2008-10-07T07:39:10Z</time>
      </trkpt>
      <trkpt lat="44.46528" lon="2.40782">
        <ele>351</ele>
        <time>2008-10-07T07:39:18Z</time>
      </trkpt>
      <trkpt lat="44.46521" lon="2.40789">
        <ele>351</ele>
        <time>2008-10-07T07:39:28Z</time>
      </trkpt>
      <trkpt lat="44.46512" lon="2.40794">
        <ele>351</ele>
        <time>2008-10-07T07:39:36Z</time>
      </trkpt>
      <trkpt lat="44.46503" lon="2.408">
        <ele>351</ele>
        <time>2008-10-07T07:39:44Z</time>
      </trkpt>
      <trkpt lat="44.46495" lon="2.40806">
        <ele>351</ele>
        <time>2008-10-07T07:39:52Z</time>
      </trkpt>
      <trkpt lat="44.46486" lon="2.40809">
        <ele>351</ele>
        <time>2008-10-07T07:40:00Z</time>
      </trkpt>
      <trkpt lat="44.46478" lon="2.40813">
        <ele>351</ele>
        <time>2008-10-07T07:40:07Z</time>
      </trkpt>
      <trkpt lat="44.46469" lon="2.40818">
        <ele>351</ele>
        <time>2008-10-07T07:40:14Z</time>
      </trkpt>
      <trkpt lat="44.4646" lon="2.40815">
        <ele>358</ele>
        <time>2008-10-07T07:40:24Z</time>
      </trkpt>
      <trkpt lat="44.46462" lon="2.40802">
        <ele>358</ele>
        <time>2008-10-07T07:40:33Z</time>
      </trkpt>
      <trkpt lat="44.46464" lon="2.4079">
        <ele>358</ele>
        <time>2008-10-07T07:40:40Z</time>
      </trkpt>
      <trkpt lat="44.46471" lon="2.4078">
        <ele>358</ele>
        <time>2008-10-07T07:40:48Z</time>
      </trkpt>
      <trkpt lat="44.46478" lon="2.40774">
        <ele>358</ele>
        <time>2008-10-07T07:40:55Z</time>
      </trkpt>
      <trkpt lat="44.46485" lon="2.40765">
        <ele>358</ele>
        <time>2008-10-07T07:41:05Z</time>
      </trkpt>
      <trkpt lat="44.46492" lon="2.40754">
        <ele>358</ele>
        <time>2008-10-07T07:41:13Z</time>
      </trkpt>
      <trkpt lat="44.46502" lon="2.40749">
        <ele>358</ele>
        <time>2008-10-07T07:41:20Z</time>
      </trkpt>
      <trkpt lat="44.46509" lon="2.4074">
        <ele>358</ele>
        <time>2008-10-07T07:41:30Z</time>
      </trkpt>
      <trkpt lat="44.46517" lon="2.40731">
        <ele>358</ele>
        <time>2008-10-07T07:41:39Z</time>
      </trkpt>
      <trkpt lat="44.46525" lon="2.40726">
        <ele>358</ele>
        <time>2008-10-07T07:41:46Z</time>
      </trkpt>
      <trkpt lat="44.46532" lon="2.40717">
        <ele>358</ele>
        <time>2008-10-07T07:41:54Z</time>
      </trkpt>
      <trkpt lat="44.46541" lon="2.4071">
        <ele>363</ele>
        <time>2008-10-07T07:42:01Z</time>
      </trkpt>
      <trkpt lat="44.46548" lon="2.40703">
        <ele>363</ele>
        <time>2008-10-07T07:42:09Z</time>
      </trkpt>
      <trkpt lat="44.46557" lon="2.40695">
        <ele>363</ele>
        <time>2008-10-07T07:42:17Z</time>
      </trkpt>
      <trkpt lat="44.46565" lon="2.40687">
        <ele>363</ele>
        <time>2008-10-07T07:42:24Z</time>
      </trkpt>
      <trkpt lat="44.46573" lon="2.40679">
        <ele>363</ele>
        <time>2008-10-07T07:42:32Z</time>
      </trkpt>
      <trkpt lat="44.46579" lon="2.40669">
        <ele>363</ele>
        <time>2008-10-07T07:42:40Z</time>
      </trkpt>
      <trkpt lat="44.46574" lon="2.40659">
        <ele>363</ele>
        <time>2008-10-07T07:42:49Z</time>
      </trkpt>
      <trkpt lat="44.46565" lon="2.40653">
        <ele>363</ele>
        <time>2008-10-07T07:42:59Z</time>
      </trkpt>
      <trkpt lat="44.46556" lon="2.40652">
        <ele>363</ele>
        <time>2008-10-07T07:43:07Z</time>
      </trkpt>
      <trkpt lat="44.46547" lon="2.40658">
        <ele>363</ele>
        <time>2008-10-07T07:43:15Z</time>
      </trkpt>
      <trkpt lat="44.46539" lon="2.40664">
        <ele>363</ele>
        <time>2008-10-07T07:43:22Z</time>
      </trkpt>
      <trkpt lat="44.4653" lon="2.40669">
        <ele>363</ele>
        <time>2008-10-07T07:43:30Z</time>
      </trkpt>
      <trkpt lat="44.46522" lon="2.40676">
        <ele>363</ele>
        <time>2008-10-07T07:43:38Z</time>
      </trkpt>
      <trkpt lat="44.46513" lon="2.40681">
        <ele>363</ele>
        <time>2008-10-07T07:43:46Z</time>
      </trkpt>
      <trkpt lat="44.46504" lon="2.40687">
        <ele>363</ele>
        <time>2008-10-07T07:43:55Z</time>
      </trkpt>
      <trkpt lat="44.46496" lon="2.40693">
        <ele>363</ele>
        <time>2008-10-07T07:44:04Z</time>
      </trkpt>
      <trkpt lat="44.46487" lon="2.40697">
        <ele>363</ele>
        <time>2008-10-07T07:44:11Z</time>
      </trkpt>
      <trkpt lat="44.46479" lon="2.40704">
        <ele>363</ele>
        <time>2008-10-07T07:44:19Z</time>
      </trkpt>
      <trkpt lat="44.46471" lon="2.4071">
        <ele>363</ele>
        <time>2008-10-07T07:44:27Z</time>
      </trkpt>
      <trkpt lat="44.46462" lon="2.40715">
        <ele>363</ele>
        <time>2008-10-07T07:44:36Z</time>
      </trkpt>
      <trkpt lat="44.46454" lon="2.40722">
        <ele>371</ele>
        <time>2008-10-07T07:44:45Z</time>
      </trkpt>
      <trkpt lat="44.46447" lon="2.40729">
        <ele>371</ele>
        <time>2008-10-07T07:44:53Z</time>
      </trkpt>
      <trkpt lat="44.46438" lon="2.40734">
        <ele>371</ele>
        <time>2008-10-07T07:45:02Z</time>
      </trkpt>
      <trkpt lat="44.46431" lon="2.4074">
        <ele>371</ele>
        <time>2008-10-07T07:45:09Z</time>
      </trkpt>
      <trkpt lat="44.46424" lon="2.40748">
        <ele>371</ele>
        <time>2008-10-07T07:45:16Z</time>
      </trkpt>
      <trkpt lat="44.46415" lon="2.40754">
        <ele>371</ele>
        <time>2008-10-07T07:45:24Z</time>
      </trkpt>
      <trkpt lat="44.46406" lon="2.40759">
        <ele>371</ele>
        <time>2008-10-07T07:45:32Z</time>
      </trkpt>
      <trkpt lat="44.46398" lon="2.40766">
        <ele>371</ele>
        <time>2008-10-07T07:45:41Z</time>
      </trkpt>
      <trkpt lat="44.46389" lon="2.40772">
        <ele>371</ele>
        <time>2008-10-07T07:45:49Z</time>
      </trkpt>
      <trkpt lat="44.46382" lon="2.40779">
        <ele>371</ele>
        <time>2008-10-07T07:45:56Z</time>
      </trkpt>
      <trkpt lat="44.46375" lon="2.40787">
        <ele>371</ele>
        <time>2008-10-07T07:46:04Z</time>
      </trkpt>
      <trkpt lat="44.46368" lon="2.40794">
        <ele>377</ele>
        <time>2008-10-07T07:46:14Z</time>
      </trkpt>
      <trkpt lat="44.46361" lon="2.40802">
        <ele>377</ele>
        <time>2008-10-07T07:46:22Z</time>
      </trkpt>
      <trkpt lat="44.46353" lon="2.40811">
        <ele>377</ele>
        <time>2008-10-07T07:46:29Z</time>
      </trkpt>
      <trkpt lat="44.46345" lon="2.4082">
        <ele>377</ele>
        <time>2008-10-07T07:46:37Z</time>
      </trkpt>
      <trkpt lat="44.46336" lon="2.40824">
        <ele>377</ele>
        <time>2008-10-07T07:46:45Z</time>
      </trkpt>
      <trkpt lat="44.46326" lon="2.40828">
        <ele>377</ele>
        <time>2008-10-07T07:46:53Z</time>
      </trkpt>
      <trkpt lat="44.46317" lon="2.40829">
        <ele>377</ele>
        <time>2008-10-07T07:47:02Z</time>
      </trkpt>
      <trkpt lat="44.46308" lon="2.40833">
        <ele>377</ele>
        <time>2008-10-07T07:47:11Z</time>
      </trkpt>
      <trkpt lat="44.46299" lon="2.40838">
        <ele>377</ele>
        <time>2008-10-07T07:47:21Z</time>
      </trkpt>
      <trkpt lat="44.46292" lon="2.40847">
        <ele>384</ele>
        <time>2008-10-07T07:47:31Z</time>
      </trkpt>
      <trkpt lat="44.46284" lon="2.40851">
        <ele>384</ele>
        <time>2008-10-07T07:47:38Z</time>
      </trkpt>
      <trkpt lat="44.46276" lon="2.40855">
        <ele>384</ele>
        <time>2008-10-07T07:47:46Z</time>
      </trkpt>
      <trkpt lat="44.46267" lon="2.40862">
        <ele>384</ele>
        <time>2008-10-07T07:47:55Z</time>
      </trkpt>
      <trkpt lat="44.46259" lon="2.40869">
        <ele>384</ele>
        <time>2008-10-07T07:48:04Z</time>
      </trkpt>
      <trkpt lat="44.46252" lon="2.40879">
        <ele>377</ele>
        <time>2008-10-07T07:48:13Z</time>
      </trkpt>
      <trkpt lat="44.46247" lon="2.4089">
        <ele>377</ele>
        <time>2008-10-07T07:48:22Z</time>
      </trkpt>
      <trkpt lat="44.46239" lon="2.40898">
        <ele>377</ele>
        <time>2008-10-07T07:48:31Z</time>
      </trkpt>
      <trkpt lat="44.46233" lon="2.40908">
        <ele>377</ele>
        <time>2008-10-07T07:48:41Z</time>
      </trkpt>
      <trkpt lat="44.46226" lon="2.40917">
        <ele>377</ele>
        <time>2008-10-07T07:48:53Z</time>
      </trkpt>
      <trkpt lat="44.46218" lon="2.40926">
        <ele>377</ele>
        <time>2008-10-07T07:49:03Z</time>
      </trkpt>
      <trkpt lat="44.46212" lon="2.40935">
        <ele>386</ele>
        <time>2008-10-07T07:49:15Z</time>
      </trkpt>
      <trkpt lat="44.46203" lon="2.40942">
        <ele>386</ele>
        <time>2008-10-07T07:49:25Z</time>
      </trkpt>
      <trkpt lat="44.46195" lon="2.40947">
        <ele>386</ele>
        <time>2008-10-07T07:49:32Z</time>
      </trkpt>
      <trkpt lat="44.46186" lon="2.40952">
        <ele>375</ele>
        <time>2008-10-07T07:49:39Z</time>
      </trkpt>
      <trkpt lat="44.46181" lon="2.40962">
        <ele>375</ele>
        <time>2008-10-07T07:49:50Z</time>
      </trkpt>
      <trkpt lat="44.46174" lon="2.4097">
        <ele>375</ele>
        <time>2008-10-07T07:49:58Z</time>
      </trkpt>
      <trkpt lat="44.46165" lon="2.40977">
        <ele>375</ele>
        <time>2008-10-07T07:50:07Z</time>
      </trkpt>
      <trkpt lat="44.46158" lon="2.40984">
        <ele>375</ele>
        <time>2008-10-07T07:50:15Z</time>
      </trkpt>
      <trkpt lat="44.46151" lon="2.40993">
        <ele>375</ele>
        <time>2008-10-07T07:50:23Z</time>
      </trkpt>
      <trkpt lat="44.46145" lon="2.41002">
        <ele>375</ele>
        <time>2008-10-07T07:50:31Z</time>
      </trkpt>
      <trkpt lat="44.46138" lon="2.4101">
        <ele>375</ele>
        <time>2008-10-07T07:50:40Z</time>
      </trkpt>
      <trkpt lat="44.4613" lon="2.41016">
        <ele>375</ele>
        <time>2008-10-07T07:50:48Z</time>
      </trkpt>
      <trkpt lat="44.46122" lon="2.41026">
        <ele>375</ele>
        <time>2008-10-07T07:50:57Z</time>
      </trkpt>
      <trkpt lat="44.46117" lon="2.41037">
        <ele>375</ele>
        <time>2008-10-07T07:51:04Z</time>
      </trkpt>
      <trkpt lat="44.46113" lon="2.41048">
        <ele>375</ele>
        <time>2008-10-07T07:51:12Z</time>
      </trkpt>
      <trkpt lat="44.46108" lon="2.41058">
        <ele>375</ele>
        <time>2008-10-07T07:51:19Z</time>
      </trkpt>
      <trkpt lat="44.46101" lon="2.41065">
        <ele>375</ele>
        <time>2008-10-07T07:51:26Z</time>
      </trkpt>
      <trkpt lat="44.46094" lon="2.41075">
        <ele>375</ele>
        <time>2008-10-07T07:51:34Z</time>
      </trkpt>
      <trkpt lat="44.46086" lon="2.41082">
        <ele>375</ele>
        <time>2008-10-07T07:51:41Z</time>
      </trkpt>
      <trkpt lat="44.46084" lon="2.41094">
        <ele>375</ele>
        <time>2008-10-07T07:51:49Z</time>
      </trkpt>
      <trkpt lat="44.46077" lon="2.41104">
        <ele>375</ele>
        <time>2008-10-07T07:51:58Z</time>
      </trkpt>
      <trkpt lat="44.46069" lon="2.41111">
        <ele>375</ele>
        <time>2008-10-07T07:52:05Z</time>
      </trkpt>
      <trkpt lat="44.46061" lon="2.41118">
        <ele>375</ele>
        <time>2008-10-07T07:52:14Z</time>
      </trkpt>
      <trkpt lat="44.46052" lon="2.41124">
        <ele>375</ele>
        <time>2008-10-07T07:52:22Z</time>
      </trkpt>
      <trkpt lat="44.46045" lon="2.41132">
        <ele>380</ele>
        <time>2008-10-07T07:52:32Z</time>
      </trkpt>
      <trkpt lat="44.46038" lon="2.41138">
        <ele>380</ele>
        <time>2008-10-07T07:52:39Z</time>
      </trkpt>
      <trkpt lat="44.46029" lon="2.41145">
        <ele>380</ele>
        <time>2008-10-07T07:52:48Z</time>
      </trkpt>
      <trkpt lat="44.46021" lon="2.41153">
        <ele>380</ele>
        <time>2008-10-07T07:52:58Z</time>
      </trkpt>
      <trkpt lat="44.46014" lon="2.4116">
        <ele>380</ele>
        <time>2008-10-07T07:53:05Z</time>
      </trkpt>
      <trkpt lat="44.46007" lon="2.41168">
        <ele>380</ele>
        <time>2008-10-07T07:53:12Z</time>
      </trkpt>
      <trkpt lat="44.46" lon="2.41176">
        <ele>380</ele>
        <time>2008-10-07T07:53:20Z</time>
      </trkpt>
      <trkpt lat="44.45993" lon="2.41185">
        <ele>380</ele>
        <time>2008-10-07T07:53:29Z</time>
      </trkpt>
      <trkpt lat="44.45983" lon="2.41191">
        <ele>380</ele>
        <time>2008-10-07T07:53:38Z</time>
      </trkpt>
      <trkpt lat="44.45975" lon="2.41195">
        <ele>380</ele>
        <time>2008-10-07T07:53:46Z</time>
      </trkpt>
      <trkpt lat="44.45966" lon="2.41199">
        <ele>380</ele>
        <time>2008-10-07T07:53:53Z</time>
      </trkpt>
      <trkpt lat="44.45958" lon="2.41203">
        <ele>380</ele>
        <time>2008-10-07T07:54:02Z</time>
      </trkpt>
      <trkpt lat="44.45948" lon="2.412">
        <ele>380</ele>
        <time>2008-10-07T07:54:10Z</time>
      </trkpt>
      <trkpt lat="44.4594" lon="2.41196">
        <ele>380</ele>
        <time>2008-10-07T07:54:17Z</time>
      </trkpt>
      <trkpt lat="44.4593" lon="2.4119">
        <ele>365</ele>
        <time>2008-10-07T07:54:23Z</time>
      </trkpt>
      <trkpt lat="44.45922" lon="2.41182">
        <ele>365</ele>
        <time>2008-10-07T07:54:32Z</time>
      </trkpt>
      <trkpt lat="44.45915" lon="2.41173">
        <ele>365</ele>
        <time>2008-10-07T07:54:41Z</time>
      </trkpt>
      <trkpt lat="44.45906" lon="2.41169">
        <ele>375</ele>
        <time>2008-10-07T07:54:51Z</time>
      </trkpt>
      <trkpt lat="44.45897" lon="2.41172">
        <ele>384</ele>
        <time>2008-10-07T07:55:04Z</time>
      </trkpt>
      <trkpt lat="44.4589" lon="2.41178">
        <ele>384</ele>
        <time>2008-10-07T07:55:16Z</time>
      </trkpt>
      <trkpt lat="44.4588" lon="2.4118">
        <ele>384</ele>
        <time>2008-10-07T07:55:23Z</time>
      </trkpt>
      <trkpt lat="44.45873" lon="2.41188">
        <ele>384</ele>
        <time>2008-10-07T07:55:31Z</time>
      </trkpt>
      <trkpt lat="44.45864" lon="2.41194">
        <ele>384</ele>
        <time>2008-10-07T07:55:38Z</time>
      </trkpt>
      <trkpt lat="44.45856" lon="2.41198">
        <ele>384</ele>
        <time>2008-10-07T07:55:47Z</time>
      </trkpt>
      <trkpt lat="44.45846" lon="2.41198">
        <ele>384</ele>
        <time>2008-10-07T07:55:52Z</time>
      </trkpt>
      <trkpt lat="44.45837" lon="2.41197">
        <ele>384</ele>
        <time>2008-10-07T07:55:59Z</time>
      </trkpt>
      <trkpt lat="44.45828" lon="2.41197">
        <ele>384</ele>
        <time>2008-10-07T07:56:06Z</time>
      </trkpt>
      <trkpt lat="44.45819" lon="2.41196">
        <ele>377</ele>
        <time>2008-10-07T07:56:12Z</time>
      </trkpt>
      <trkpt lat="44.4581" lon="2.41192">
        <ele>370</ele>
        <time>2008-10-07T07:56:17Z</time>
      </trkpt>
      <trkpt lat="44.45803" lon="2.41183">
        <ele>370</ele>
        <time>2008-10-07T07:56:24Z</time>
      </trkpt>
      <trkpt lat="44.45796" lon="2.41174">
        <ele>370</ele>
        <time>2008-10-07T07:56:31Z</time>
      </trkpt>
      <trkpt lat="44.45793" lon="2.41162">
        <ele>364</ele>
        <time>2008-10-07T07:56:38Z</time>
      </trkpt>
      <trkpt lat="44.45789" lon="2.4115">
        <ele>364</ele>
        <time>2008-10-07T07:56:47Z</time>
      </trkpt>
      <trkpt lat="44.45787" lon="2.41138">
        <ele>364</ele>
        <time>2008-10-07T07:56:54Z</time>
      </trkpt>
      <trkpt lat="44.45783" lon="2.41125">
        <ele>364</ele>
        <time>2008-10-07T07:57:01Z</time>
      </trkpt>
      <trkpt lat="44.45781" lon="2.41112">
        <ele>364</ele>
        <time>2008-10-07T07:57:08Z</time>
      </trkpt>
      <trkpt lat="44.45777" lon="2.41101">
        <ele>364</ele>
        <time>2008-10-07T07:57:15Z</time>
      </trkpt>
      <trkpt lat="44.45773" lon="2.41089">
        <ele>364</ele>
        <time>2008-10-07T07:57:23Z</time>
      </trkpt>
      <trkpt lat="44.4577" lon="2.41077">
        <ele>364</ele>
        <time>2008-10-07T07:57:31Z</time>
      </trkpt>
      <trkpt lat="44.45767" lon="2.41066">
        <ele>364</ele>
        <time>2008-10-07T07:57:38Z</time>
      </trkpt>
      <trkpt lat="44.45768" lon="2.41053">
        <ele>364</ele>
        <time>2008-10-07T07:57:46Z</time>
      </trkpt>
      <trkpt lat="44.45763" lon="2.41042">
        <ele>364</ele>
        <time>2008-10-07T07:57:55Z</time>
      </trkpt>
      <trkpt lat="44.45761" lon="2.4103">
        <ele>373</ele>
        <time>2008-10-07T07:58:07Z</time>
      </trkpt>
      <trkpt lat="44.45758" lon="2.41017">
        <ele>373</ele>
        <time>2008-10-07T07:58:14Z</time>
      </trkpt>
      <trkpt lat="44.45758" lon="2.41005">
        <ele>373</ele>
        <time>2008-10-07T07:58:21Z</time>
      </trkpt>
      <trkpt lat="44.45758" lon="2.40992">
        <ele>373</ele>
        <time>2008-10-07T07:58:29Z</time>
      </trkpt>
      <trkpt lat="44.45758" lon="2.40979">
        <ele>373</ele>
        <time>2008-10-07T07:58:37Z</time>
      </trkpt>
      <trkpt lat="44.45756" lon="2.40965">
        <ele>373</ele>
        <time>2008-10-07T07:58:46Z</time>
      </trkpt>
      <trkpt lat="44.45754" lon="2.40952">
        <ele>365</ele>
        <time>2008-10-07T07:58:54Z</time>
      </trkpt>
      <trkpt lat="44.45753" lon="2.4094">
        <ele>365</ele>
        <time>2008-10-07T07:59:02Z</time>
      </trkpt>
      <trkpt lat="44.45752" lon="2.40926">
        <ele>365</ele>
        <time>2008-10-07T07:59:12Z</time>
      </trkpt>
      <trkpt lat="44.45745" lon="2.40918">
        <ele>374</ele>
        <time>2008-10-07T07:59:26Z</time>
      </trkpt>
      <trkpt lat="44.45735" lon="2.4092">
        <ele>381</ele>
        <time>2008-10-07T07:59:38Z</time>
      </trkpt>
      <trkpt lat="44.45726" lon="2.40917">
        <ele>381</ele>
        <time>2008-10-07T07:59:46Z</time>
      </trkpt>
      <trkpt lat="44.45717" lon="2.40918">
        <ele>381</ele>
        <time>2008-10-07T07:59:56Z</time>
      </trkpt>
      <trkpt lat="44.45708" lon="2.40915">
        <ele>381</ele>
        <time>2008-10-07T08:00:05Z</time>
      </trkpt>
      <trkpt lat="44.45699" lon="2.4091">
        <ele>381</ele>
        <time>2008-10-07T08:00:15Z</time>
      </trkpt>
      <trkpt lat="44.45691" lon="2.40906">
        <ele>381</ele>
        <time>2008-10-07T08:00:24Z</time>
      </trkpt>
      <trkpt lat="44.45682" lon="2.409">
        <ele>381</ele>
        <time>2008-10-07T08:00:36Z</time>
      </trkpt>
      <trkpt lat="44.45673" lon="2.40894">
        <ele>381</ele>
        <time>2008-10-07T08:00:49Z</time>
      </trkpt>
      <trkpt lat="44.45667" lon="2.40884">
        <ele>381</ele>
        <time>2008-10-07T08:01:05Z</time>
      </trkpt>
      <trkpt lat="44.45658" lon="2.40881">
        <ele>388</ele>
        <time>2008-10-07T08:01:18Z</time>
      </trkpt>
      <trkpt lat="44.45648" lon="2.40878">
        <ele>388</ele>
        <time>2008-10-07T08:01:29Z</time>
      </trkpt>
      <trkpt lat="44.45641" lon="2.40872">
        <ele>388</ele>
        <time>2008-10-07T08:01:37Z</time>
      </trkpt>
      <trkpt lat="44.45632" lon="2.40868">
        <ele>388</ele>
        <time>2008-10-07T08:01:46Z</time>
      </trkpt>
      <trkpt lat="44.45623" lon="2.40865">
        <ele>388</ele>
        <time>2008-10-07T08:01:57Z</time>
      </trkpt>
      <trkpt lat="44.45624" lon="2.40878">
        <ele>388</ele>
        <time>2008-10-07T08:02:15Z</time>
      </trkpt>
      <trkpt lat="44.45627" lon="2.4089">
        <ele>388</ele>
        <time>2008-10-07T08:02:23Z</time>
      </trkpt>
      <trkpt lat="44.4563" lon="2.40903">
        <ele>388</ele>
        <time>2008-10-07T08:02:34Z</time>
      </trkpt>
      <trkpt lat="44.4563" lon="2.40916">
        <ele>388</ele>
        <time>2008-10-07T08:02:44Z</time>
      </trkpt>
      <trkpt lat="44.45626" lon="2.40926">
        <ele>396</ele>
        <time>2008-10-07T08:02:55Z</time>
      </trkpt>
      <trkpt lat="44.45617" lon="2.40926">
        <ele>396</ele>
        <time>2008-10-07T08:03:06Z</time>
      </trkpt>
      <trkpt lat="44.45608" lon="2.40926">
        <ele>396</ele>
        <time>2008-10-07T08:03:16Z</time>
      </trkpt>
      <trkpt lat="44.45599" lon="2.40928">
        <ele>404</ele>
        <time>2008-10-07T08:03:31Z</time>
      </trkpt>
      <trkpt lat="44.4559" lon="2.40932">
        <ele>404</ele>
        <time>2008-10-07T08:03:45Z</time>
      </trkpt>
      <trkpt lat="44.45582" lon="2.40936">
        <ele>404</ele>
        <time>2008-10-07T08:03:58Z</time>
      </trkpt>
      <trkpt lat="44.45575" lon="2.40943">
        <ele>404</ele>
        <time>2008-10-07T08:04:09Z</time>
      </trkpt>
      <trkpt lat="44.45569" lon="2.40952">
        <ele>410</ele>
        <time>2008-10-07T08:04:20Z</time>
      </trkpt>
      <trkpt lat="44.45561" lon="2.40961">
        <ele>410</ele>
        <time>2008-10-07T08:04:31Z</time>
      </trkpt>
      <trkpt lat="44.45554" lon="2.40969">
        <ele>410</ele>
        <time>2008-10-07T08:04:42Z</time>
      </trkpt>
      <trkpt lat="44.45549" lon="2.40979">
        <ele>410</ele>
        <time>2008-10-07T08:04:53Z</time>
      </trkpt>
      <trkpt lat="44.45542" lon="2.40987">
        <ele>415</ele>
        <time>2008-10-07T08:05:03Z</time>
      </trkpt>
      <trkpt lat="44.45537" lon="2.40997">
        <ele>415</ele>
        <time>2008-10-07T08:05:16Z</time>
      </trkpt>
      <trkpt lat="44.45534" lon="2.4101">
        <ele>415</ele>
        <time>2008-10-07T08:05:27Z</time>
      </trkpt>
      <trkpt lat="44.4553" lon="2.41022">
        <ele>415</ele>
        <time>2008-10-07T08:05:41Z</time>
      </trkpt>
      <trkpt lat="44.45522" lon="2.41027">
        <ele>422</ele>
        <time>2008-10-07T08:05:52Z</time>
      </trkpt>
      <trkpt lat="44.45514" lon="2.41034">
        <ele>422</ele>
        <time>2008-10-07T08:06:05Z</time>
      </trkpt>
      <trkpt lat="44.45507" lon="2.41043">
        <ele>422</ele>
        <time>2008-10-07T08:06:16Z</time>
      </trkpt>
      <trkpt lat="44.455" lon="2.4105">
        <ele>422</ele>
        <time>2008-10-07T08:06:26Z</time>
      </trkpt>
      <trkpt lat="44.45492" lon="2.41054">
        <ele>422</ele>
        <time>2008-10-07T08:06:34Z</time>
      </trkpt>
      <trkpt lat="44.45483" lon="2.41057">
        <ele>422</ele>
        <time>2008-10-07T08:10:08Z</time>
      </trkpt>
      <trkpt lat="44.45475" lon="2.41062">
        <ele>422</ele>
        <time>2008-10-07T08:10:17Z</time>
      </trkpt>
      <trkpt lat="44.45466" lon="2.41068">
        <ele>422</ele>
        <time>2008-10-07T08:10:26Z</time>
      </trkpt>
      <trkpt lat="44.45459" lon="2.41076">
        <ele>422</ele>
        <time>2008-10-07T08:10:34Z</time>
      </trkpt>
      <trkpt lat="44.4545" lon="2.41081">
        <ele>422</ele>
        <time>2008-10-07T08:10:42Z</time>
      </trkpt>
      <trkpt lat="44.45442" lon="2.41088">
        <ele>422</ele>
        <time>2008-10-07T08:10:50Z</time>
      </trkpt>
      <trkpt lat="44.45434" lon="2.41094">
        <ele>428</ele>
        <time>2008-10-07T08:10:58Z</time>
      </trkpt>
      <trkpt lat="44.45425" lon="2.41101">
        <ele>428</ele>
        <time>2008-10-07T08:11:06Z</time>
      </trkpt>
      <trkpt lat="44.45418" lon="2.41108">
        <ele>428</ele>
        <time>2008-10-07T08:11:13Z</time>
      </trkpt>
      <trkpt lat="44.4541" lon="2.41114">
        <ele>428</ele>
        <time>2008-10-07T08:11:21Z</time>
      </trkpt>
      <trkpt lat="44.45402" lon="2.4112">
        <ele>428</ele>
        <time>2008-10-07T08:11:29Z</time>
      </trkpt>
      <trkpt lat="44.45394" lon="2.41127">
        <ele>433</ele>
        <time>2008-10-07T08:11:37Z</time>
      </trkpt>
      <trkpt lat="44.45385" lon="2.41131">
        <ele>433</ele>
        <time>2008-10-07T08:11:46Z</time>
      </trkpt>
      <trkpt lat="44.45376" lon="2.41128">
        <ele>433</ele>
        <time>2008-10-07T08:11:54Z</time>
      </trkpt>
      <trkpt lat="44.45367" lon="2.41123">
        <ele>433</ele>
        <time>2008-10-07T08:12:01Z</time>
      </trkpt>
      <trkpt lat="44.45358" lon="2.41119">
        <ele>433</ele>
        <time>2008-10-07T08:12:09Z</time>
      </trkpt>
      <trkpt lat="44.45349" lon="2.41119">
        <ele>433</ele>
        <time>2008-10-07T08:12:21Z</time>
      </trkpt>
      <trkpt lat="44.45343" lon="2.41129">
        <ele>433</ele>
        <time>2008-10-07T08:12:31Z</time>
      </trkpt>
      <trkpt lat="44.45338" lon="2.41139">
        <ele>433</ele>
        <time>2008-10-07T08:12:40Z</time>
      </trkpt>
      <trkpt lat="44.45331" lon="2.41149">
        <ele>433</ele>
        <time>2008-10-07T08:12:49Z</time>
      </trkpt>
      <trkpt lat="44.45325" lon="2.41159">
        <ele>433</ele>
        <time>2008-10-07T08:12:57Z</time>
      </trkpt>
      <trkpt lat="44.45318" lon="2.41169">
        <ele>433</ele>
        <time>2008-10-07T08:13:05Z</time>
      </trkpt>
      <trkpt lat="44.45312" lon="2.41178">
        <ele>433</ele>
        <time>2008-10-07T08:13:13Z</time>
      </trkpt>
      <trkpt lat="44.45305" lon="2.41188">
        <ele>433</ele>
        <time>2008-10-07T08:13:21Z</time>
      </trkpt>
      <trkpt lat="44.45299" lon="2.41198">
        <ele>433</ele>
        <time>2008-10-07T08:13:29Z</time>
      </trkpt>
      <trkpt lat="44.45292" lon="2.41207">
        <ele>427</ele>
        <time>2008-10-07T08:13:38Z</time>
      </trkpt>
      <trkpt lat="44.45285" lon="2.41214">
        <ele>427</ele>
        <time>2008-10-07T08:13:48Z</time>
      </trkpt>
      <trkpt lat="44.45278" lon="2.41221">
        <ele>427</ele>
        <time>2008-10-07T08:13:56Z</time>
      </trkpt>
      <trkpt lat="44.4527" lon="2.41228">
        <ele>427</ele>
        <time>2008-10-07T08:14:04Z</time>
      </trkpt>
      <trkpt lat="44.45262" lon="2.41235">
        <ele>427</ele>
        <time>2008-10-07T08:14:12Z</time>
      </trkpt>
      <trkpt lat="44.45253" lon="2.41243">
        <ele>427</ele>
        <time>2008-10-07T08:14:20Z</time>
      </trkpt>
      <trkpt lat="44.45246" lon="2.4125">
        <ele>427</ele>
        <time>2008-10-07T08:14:27Z</time>
      </trkpt>
      <trkpt lat="44.45238" lon="2.41257">
        <ele>427</ele>
        <time>2008-10-07T08:14:34Z</time>
      </trkpt>
      <trkpt lat="44.45231" lon="2.41265">
        <ele>427</ele>
        <time>2008-10-07T08:14:41Z</time>
      </trkpt>
      <trkpt lat="44.45224" lon="2.41274">
        <ele>427</ele>
        <time>2008-10-07T08:14:50Z</time>
      </trkpt>
      <trkpt lat="44.45217" lon="2.41284">
        <ele>427</ele>
        <time>2008-10-07T08:14:58Z</time>
      </trkpt>
      <trkpt lat="44.4521" lon="2.41294">
        <ele>427</ele>
        <time>2008-10-07T08:15:06Z</time>
      </trkpt>
      <trkpt lat="44.45203" lon="2.41304">
        <ele>421</ele>
        <time>2008-10-07T08:15:14Z</time>
      </trkpt>
      <trkpt lat="44.45197" lon="2.41314">
        <ele>421</ele>
        <time>2008-10-07T08:15:22Z</time>
      </trkpt>
      <trkpt lat="44.4519" lon="2.41323">
        <ele>421</ele>
        <time>2008-10-07T08:15:30Z</time>
      </trkpt>
      <trkpt lat="44.45184" lon="2.41332">
        <ele>416</ele>
        <time>2008-10-07T08:15:39Z</time>
      </trkpt>
      <trkpt lat="44.45177" lon="2.41341">
        <ele>416</ele>
        <time>2008-10-07T08:15:48Z</time>
      </trkpt>
      <trkpt lat="44.4517" lon="2.4135">
        <ele>416</ele>
        <time>2008-10-07T08:15:57Z</time>
      </trkpt>
      <trkpt lat="44.45165" lon="2.4136">
        <ele>416</ele>
        <time>2008-10-07T08:16:05Z</time>
      </trkpt>
      <trkpt lat="44.45159" lon="2.41371">
        <ele>410</ele>
        <time>2008-10-07T08:16:13Z</time>
      </trkpt>
      <trkpt lat="44.45154" lon="2.41381">
        <ele>410</ele>
        <time>2008-10-07T08:16:21Z</time>
      </trkpt>
      <trkpt lat="44.4515" lon="2.41392">
        <ele>410</ele>
        <time>2008-10-07T08:16:29Z</time>
      </trkpt>
      <trkpt lat="44.45148" lon="2.41404">
        <ele>403</ele>
        <time>2008-10-07T08:16:39Z</time>
      </trkpt>
      <trkpt lat="44.45145" lon="2.41416">
        <ele>403</ele>
        <time>2008-10-07T08:16:49Z</time>
      </trkpt>
      <trkpt lat="44.45141" lon="2.41428">
        <ele>403</ele>
        <time>2008-10-07T08:16:59Z</time>
      </trkpt>
      <trkpt lat="44.45136" lon="2.4144">
        <ele>403</ele>
        <time>2008-10-07T08:17:10Z</time>
      </trkpt>
      <trkpt lat="44.45128" lon="2.41447">
        <ele>403</ele>
        <time>2008-10-07T08:17:19Z</time>
      </trkpt>
      <trkpt lat="44.4512" lon="2.41455">
        <ele>403</ele>
        <time>2008-10-07T08:17:28Z</time>
      </trkpt>
      <trkpt lat="44.45113" lon="2.41462">
        <ele>403</ele>
        <time>2008-10-07T08:17:37Z</time>
      </trkpt>
      <trkpt lat="44.45106" lon="2.4147">
        <ele>398</ele>
        <time>2008-10-07T08:17:46Z</time>
      </trkpt>
      <trkpt lat="44.45099" lon="2.41478">
        <ele>398</ele>
        <time>2008-10-07T08:17:58Z</time>
      </trkpt>
      <trkpt lat="44.45092" lon="2.41485">
        <ele>398</ele>
        <time>2008-10-07T08:18:08Z</time>
      </trkpt>
      <trkpt lat="44.45086" lon="2.41495">
        <ele>391</ele>
        <time>2008-10-07T08:18:19Z</time>
      </trkpt>
      <trkpt lat="44.4508" lon="2.41506">
        <ele>391</ele>
        <time>2008-10-07T08:18:30Z</time>
      </trkpt>
      <trkpt lat="44.45076" lon="2.41518">
        <ele>385</ele>
        <time>2008-10-07T08:18:41Z</time>
      </trkpt>
      <trkpt lat="44.45074" lon="2.41529">
        <ele>385</ele>
        <time>2008-10-07T08:19:01Z</time>
      </trkpt>
      <trkpt lat="44.45069" lon="2.4154">
        <ele>385</ele>
        <time>2008-10-07T08:19:11Z</time>
      </trkpt>
      <trkpt lat="44.45065" lon="2.41552">
        <ele>385</ele>
        <time>2008-10-07T08:19:21Z</time>
      </trkpt>
      <trkpt lat="44.4506" lon="2.41562">
        <ele>385</ele>
        <time>2008-10-07T08:19:31Z</time>
      </trkpt>
      <trkpt lat="44.45054" lon="2.41572">
        <ele>379</ele>
        <time>2008-10-07T08:19:40Z</time>
      </trkpt>
      <trkpt lat="44.45047" lon="2.41583">
        <ele>379</ele>
        <time>2008-10-07T08:19:51Z</time>
      </trkpt>
      <trkpt lat="44.45044" lon="2.41595">
        <ele>379</ele>
        <time>2008-10-07T08:20:03Z</time>
      </trkpt>
      <trkpt lat="44.45043" lon="2.41608">
        <ele>373</ele>
        <time>2008-10-07T08:20:14Z</time>
      </trkpt>
      <trkpt lat="44.45043" lon="2.41622">
        <ele>373</ele>
        <time>2008-10-07T08:20:24Z</time>
      </trkpt>
      <trkpt lat="44.45043" lon="2.41634">
        <ele>367</ele>
        <time>2008-10-07T08:20:34Z</time>
      </trkpt>
      <trkpt lat="44.4504" lon="2.41646">
        <ele>367</ele>
        <time>2008-10-07T08:20:44Z</time>
      </trkpt>
      <trkpt lat="44.45038" lon="2.41659">
        <ele>367</ele>
        <time>2008-10-07T08:20:53Z</time>
      </trkpt>
      <trkpt lat="44.45036" lon="2.41672">
        <ele>361</ele>
        <time>2008-10-07T08:21:01Z</time>
      </trkpt>
      <trkpt lat="44.45033" lon="2.41684">
        <ele>361</ele>
        <time>2008-10-07T08:21:09Z</time>
      </trkpt>
      <trkpt lat="44.45034" lon="2.41696">
        <ele>361</ele>
        <time>2008-10-07T08:21:18Z</time>
      </trkpt>
      <trkpt lat="44.45043" lon="2.417">
        <ele>361</ele>
        <time>2008-10-07T08:21:26Z</time>
      </trkpt>
      <trkpt lat="44.45053" lon="2.417">
        <ele>361</ele>
        <time>2008-10-07T08:21:43Z</time>
      </trkpt>
      <trkpt lat="44.45062" lon="2.41696">
        <ele>361</ele>
        <time>2008-10-07T08:21:53Z</time>
      </trkpt>
      <trkpt lat="44.45071" lon="2.41695">
        <ele>361</ele>
        <time>2008-10-07T08:22:03Z</time>
      </trkpt>
      <trkpt lat="44.4508" lon="2.41698">
        <ele>361</ele>
        <time>2008-10-07T08:22:12Z</time>
      </trkpt>
      <trkpt lat="44.45089" lon="2.41701">
        <ele>361</ele>
        <time>2008-10-07T08:22:19Z</time>
      </trkpt>
      <trkpt lat="44.45098" lon="2.41704">
        <ele>361</ele>
        <time>2008-10-07T08:22:27Z</time>
      </trkpt>
      <trkpt lat="44.45107" lon="2.41708">
        <ele>356</ele>
        <time>2008-10-07T08:22:35Z</time>
      </trkpt>
      <trkpt lat="44.45116" lon="2.41712">
        <ele>356</ele>
        <time>2008-10-07T08:22:43Z</time>
      </trkpt>
      <trkpt lat="44.45123" lon="2.4172">
        <ele>350</ele>
        <time>2008-10-07T08:22:51Z</time>
      </trkpt>
      <trkpt lat="44.4513" lon="2.41727">
        <ele>350</ele>
        <time>2008-10-07T08:23:00Z</time>
      </trkpt>
      <trkpt lat="44.45138" lon="2.41733">
        <ele>350</ele>
        <time>2008-10-07T08:23:09Z</time>
      </trkpt>
      <trkpt lat="44.45146" lon="2.4174">
        <ele>350</ele>
        <time>2008-10-07T08:23:20Z</time>
      </trkpt>
      <trkpt lat="44.45154" lon="2.41747">
        <ele>350</ele>
        <time>2008-10-07T08:23:28Z</time>
      </trkpt>
      <trkpt lat="44.45162" lon="2.41753">
        <ele>350</ele>
        <time>2008-10-07T08:23:36Z</time>
      </trkpt>
      <trkpt lat="44.4517" lon="2.4176">
        <ele>350</ele>
        <time>2008-10-07T08:23:46Z</time>
      </trkpt>
      <trkpt lat="44.45177" lon="2.41767">
        <ele>350</ele>
        <time>2008-10-07T08:23:55Z</time>
      </trkpt>
      <trkpt lat="44.45181" lon="2.41781">
        <ele>338</ele>
        <time>2008-10-07T08:24:09Z</time>
      </trkpt>
      <trkpt lat="44.4518" lon="2.41793">
        <ele>338</ele>
        <time>2008-10-07T08:24:18Z</time>
      </trkpt>
      <trkpt lat="44.45179" lon="2.41807">
        <ele>330</ele>
        <time>2008-10-07T08:24:27Z</time>
      </trkpt>
      <trkpt lat="44.45179" lon="2.41819">
        <ele>330</ele>
        <time>2008-10-07T08:24:34Z</time>
      </trkpt>
      <trkpt lat="44.45178" lon="2.41833">
        <ele>324</ele>
        <time>2008-10-07T08:24:42Z</time>
      </trkpt>
      <trkpt lat="44.45179" lon="2.41846">
        <ele>324</ele>
        <time>2008-10-07T08:24:49Z</time>
      </trkpt>
      <trkpt lat="44.4518" lon="2.41861">
        <ele>317</ele>
        <time>2008-10-07T08:24:57Z</time>
      </trkpt>
      <trkpt lat="44.45181" lon="2.41873">
        <ele>317</ele>
        <time>2008-10-07T08:25:05Z</time>
      </trkpt>
      <trkpt lat="44.4518" lon="2.41886">
        <ele>317</ele>
        <time>2008-10-07T08:25:12Z</time>
      </trkpt>
      <trkpt lat="44.45179" lon="2.41899">
        <ele>317</ele>
        <time>2008-10-07T08:25:20Z</time>
      </trkpt>
      <trkpt lat="44.45174" lon="2.4191">
        <ele>317</ele>
        <time>2008-10-07T08:25:27Z</time>
      </trkpt>
      <trkpt lat="44.45164" lon="2.41909">
        <ele>317</ele>
        <time>2008-10-07T08:25:34Z</time>
      </trkpt>
      <trkpt lat="44.45155" lon="2.41906">
        <ele>317</ele>
        <time>2008-10-07T08:25:40Z</time>
      </trkpt>
      <trkpt lat="44.45145" lon="2.41905">
        <ele>317</ele>
        <time>2008-10-07T08:25:46Z</time>
      </trkpt>
      <trkpt lat="44.45136" lon="2.41905">
        <ele>317</ele>
        <time>2008-10-07T08:25:53Z</time>
      </trkpt>
      <trkpt lat="44.45126" lon="2.41905">
        <ele>317</ele>
        <time>2008-10-07T08:26:00Z</time>
      </trkpt>
      <trkpt lat="44.45116" lon="2.41904">
        <ele>317</ele>
        <time>2008-10-07T08:26:06Z</time>
      </trkpt>
      <trkpt lat="44.45106" lon="2.41905">
        <ele>317</ele>
        <time>2008-10-07T08:26:13Z</time>
      </trkpt>
      <trkpt lat="44.45097" lon="2.41906">
        <ele>317</ele>
        <time>2008-10-07T08:26:19Z</time>
      </trkpt>
      <trkpt lat="44.45088" lon="2.41908">
        <ele>317</ele>
        <time>2008-10-07T08:26:25Z</time>
      </trkpt>
      <trkpt lat="44.45079" lon="2.4191">
        <ele>317</ele>
        <time>2008-10-07T08:26:31Z</time>
      </trkpt>
      <trkpt lat="44.4507" lon="2.41912">
        <ele>317</ele>
        <time>2008-10-07T08:26:37Z</time>
      </trkpt>
      <trkpt lat="44.45061" lon="2.41912">
        <ele>317</ele>
        <time>2008-10-07T08:26:44Z</time>
      </trkpt>
      <trkpt lat="44.45051" lon="2.41913">
        <ele>317</ele>
        <time>2008-10-07T08:26:52Z</time>
      </trkpt>
      <trkpt lat="44.45042" lon="2.41915">
        <ele>323</ele>
        <time>2008-10-07T08:27:00Z</time>
      </trkpt>
      <trkpt lat="44.45032" lon="2.41913">
        <ele>323</ele>
        <time>2008-10-07T08:27:08Z</time>
      </trkpt>
      <trkpt lat="44.45023" lon="2.41909">
        <ele>323</ele>
        <time>2008-10-07T08:27:15Z</time>
      </trkpt>
      <trkpt lat="44.45014" lon="2.41907">
        <ele>323</ele>
        <time>2008-10-07T08:27:22Z</time>
      </trkpt>
      <trkpt lat="44.45004" lon="2.41904">
        <ele>323</ele>
        <time>2008-10-07T08:28:02Z</time>
      </trkpt>
      <trkpt lat="44.44995" lon="2.41902">
        <ele>323</ele>
        <time>2008-10-07T08:28:10Z</time>
      </trkpt>
      <trkpt lat="44.44986" lon="2.41899">
        <ele>323</ele>
        <time>2008-10-07T08:28:18Z</time>
      </trkpt>
      <trkpt lat="44.44978" lon="2.41895">
        <ele>323</ele>
        <time>2008-10-07T08:28:26Z</time>
      </trkpt>
      <trkpt lat="44.44969" lon="2.41894">
        <ele>323</ele>
        <time>2008-10-07T08:28:35Z</time>
      </trkpt>
      <trkpt lat="44.44959" lon="2.41892">
        <ele>323</ele>
        <time>2008-10-07T08:28:42Z</time>
      </trkpt>
      <trkpt lat="44.44951" lon="2.41889">
        <ele>323</ele>
        <time>2008-10-07T08:28:49Z</time>
      </trkpt>
      <trkpt lat="44.44942" lon="2.41886">
        <ele>323</ele>
        <time>2008-10-07T08:28:57Z</time>
      </trkpt>
      <trkpt lat="44.44933" lon="2.41884">
        <ele>323</ele>
        <time>2008-10-07T08:29:05Z</time>
      </trkpt>
      <trkpt lat="44.44924" lon="2.41883">
        <ele>323</ele>
        <time>2008-10-07T08:29:13Z</time>
      </trkpt>
      <trkpt lat="44.44915" lon="2.41882">
        <ele>323</ele>
        <time>2008-10-07T08:29:21Z</time>
      </trkpt>
      <trkpt lat="44.44905" lon="2.41881">
        <ele>323</ele>
        <time>2008-10-07T08:29:29Z</time>
      </trkpt>
      <trkpt lat="44.44895" lon="2.41882">
        <ele>323</ele>
        <time>2008-10-07T08:29:36Z</time>
      </trkpt>
      <trkpt lat="44.44886" lon="2.41884">
        <ele>323</ele>
        <time>2008-10-07T08:29:44Z</time>
      </trkpt>
      <trkpt lat="44.44876" lon="2.41886">
        <ele>317</ele>
        <time>2008-10-07T08:29:52Z</time>
      </trkpt>
      <trkpt lat="44.44867" lon="2.41889">
        <ele>317</ele>
        <time>2008-10-07T08:30:00Z</time>
      </trkpt>
      <trkpt lat="44.44858" lon="2.41895">
        <ele>317</ele>
        <time>2008-10-07T08:30:07Z</time>
      </trkpt>
      <trkpt lat="44.44849" lon="2.419">
        <ele>317</ele>
        <time>2008-10-07T08:30:14Z</time>
      </trkpt>
      <trkpt lat="44.44841" lon="2.41906">
        <ele>317</ele>
        <time>2008-10-07T08:30:21Z</time>
      </trkpt>
      <trkpt lat="44.44834" lon="2.41914">
        <ele>317</ele>
        <time>2008-10-07T08:30:28Z</time>
      </trkpt>
      <trkpt lat="44.44825" lon="2.41918">
        <ele>317</ele>
        <time>2008-10-07T08:30:34Z</time>
      </trkpt>
      <trkpt lat="44.44817" lon="2.41923">
        <ele>317</ele>
        <time>2008-10-07T08:30:40Z</time>
      </trkpt>
      <trkpt lat="44.44809" lon="2.4193">
        <ele>317</ele>
        <time>2008-10-07T08:30:48Z</time>
      </trkpt>
      <trkpt lat="44.448" lon="2.41937">
        <ele>317</ele>
        <time>2008-10-07T08:30:55Z</time>
      </trkpt>
      <trkpt lat="44.44794" lon="2.41946">
        <ele>317</ele>
        <time>2008-10-07T08:31:06Z</time>
      </trkpt>
      <trkpt lat="44.44798" lon="2.41958">
        <ele>317</ele>
        <time>2008-10-07T08:31:17Z</time>
      </trkpt>
      <trkpt lat="44.44803" lon="2.41968">
        <ele>317</ele>
        <time>2008-10-07T08:31:26Z</time>
      </trkpt>
      <trkpt lat="44.448" lon="2.41979">
        <ele>317</ele>
        <time>2008-10-07T08:31:34Z</time>
      </trkpt>
      <trkpt lat="44.44793" lon="2.41987">
        <ele>317</ele>
        <time>2008-10-07T08:31:42Z</time>
      </trkpt>
      <trkpt lat="44.44785" lon="2.41994">
        <ele>317</ele>
        <time>2008-10-07T08:31:50Z</time>
      </trkpt>
      <trkpt lat="44.44778" lon="2.42002">
        <ele>317</ele>
        <time>2008-10-07T08:32:56Z</time>
      </trkpt>
      <trkpt lat="44.4477" lon="2.42007">
        <ele>317</ele>
        <time>2008-10-07T08:33:03Z</time>
      </trkpt>
      <trkpt lat="44.44762" lon="2.42012">
        <ele>317</ele>
        <time>2008-10-07T08:33:14Z</time>
      </trkpt>
      <trkpt lat="44.44753" lon="2.42018">
        <ele>317</ele>
        <time>2008-10-07T08:34:32Z</time>
      </trkpt>
      <trkpt lat="44.44746" lon="2.42025">
        <ele>317</ele>
        <time>2008-10-07T08:34:42Z</time>
      </trkpt>
      <trkpt lat="44.44737" lon="2.4203">
        <ele>323</ele>
        <time>2008-10-07T08:34:52Z</time>
      </trkpt>
      <trkpt lat="44.44729" lon="2.42035">
        <ele>323</ele>
        <time>2008-10-07T08:35:04Z</time>
      </trkpt>
      <trkpt lat="44.4472" lon="2.42039">
        <ele>323</ele>
        <time>2008-10-07T08:35:16Z</time>
      </trkpt>
      <trkpt lat="44.44711" lon="2.42045">
        <ele>323</ele>
        <time>2008-10-07T08:35:25Z</time>
      </trkpt>
      <trkpt lat="44.44702" lon="2.42048">
        <ele>323</ele>
        <time>2008-10-07T08:35:33Z</time>
      </trkpt>
      <trkpt lat="44.44694" lon="2.42052">
        <ele>323</ele>
        <time>2008-10-07T08:35:41Z</time>
      </trkpt>
      <trkpt lat="44.44687" lon="2.42059">
        <ele>323</ele>
        <time>2008-10-07T08:35:50Z</time>
      </trkpt>
      <trkpt lat="44.44679" lon="2.42065">
        <ele>323</ele>
        <time>2008-10-07T08:35:59Z</time>
      </trkpt>
      <trkpt lat="44.44672" lon="2.42073">
        <ele>323</ele>
        <time>2008-10-07T08:36:10Z</time>
      </trkpt>
      <trkpt lat="44.44664" lon="2.4208">
        <ele>323</ele>
        <time>2008-10-07T08:36:16Z</time>
      </trkpt>
      <trkpt lat="44.44657" lon="2.42088">
        <ele>331</ele>
        <time>2008-10-07T08:36:27Z</time>
      </trkpt>
      <trkpt lat="44.44649" lon="2.42095">
        <ele>331</ele>
        <time>2008-10-07T08:36:37Z</time>
      </trkpt>
      <trkpt lat="44.44641" lon="2.42099">
        <ele>331</ele>
        <time>2008-10-07T08:36:48Z</time>
      </trkpt>
      <trkpt lat="44.44632" lon="2.42102">
        <ele>331</ele>
        <time>2008-10-07T08:37:01Z</time>
      </trkpt>
      <trkpt lat="44.44623" lon="2.42102">
        <ele>338</ele>
        <time>2008-10-07T08:37:11Z</time>
      </trkpt>
      <trkpt lat="44.44614" lon="2.42107">
        <ele>338</ele>
        <time>2008-10-07T08:37:24Z</time>
      </trkpt>
      <trkpt lat="44.44606" lon="2.42111">
        <ele>338</ele>
        <time>2008-10-07T08:37:34Z</time>
      </trkpt>
      <trkpt lat="44.44597" lon="2.42114">
        <ele>338</ele>
        <time>2008-10-07T08:37:53Z</time>
      </trkpt>
      <trkpt lat="44.44589" lon="2.42118">
        <ele>338</ele>
        <time>2008-10-07T08:38:02Z</time>
      </trkpt>
      <trkpt lat="44.44581" lon="2.42126">
        <ele>338</ele>
        <time>2008-10-07T08:38:17Z</time>
      </trkpt>
      <trkpt lat="44.44576" lon="2.42136">
        <ele>338</ele>
        <time>2008-10-07T08:38:41Z</time>
      </trkpt>
      <trkpt lat="44.44571" lon="2.42145">
        <ele>338</ele>
        <time>2008-10-07T08:38:57Z</time>
      </trkpt>
      <trkpt lat="44.44566" lon="2.42156">
        <ele>338</ele>
        <time>2008-10-07T08:39:14Z</time>
      </trkpt>
      <trkpt lat="44.44559" lon="2.42165">
        <ele>338</ele>
        <time>2008-10-07T08:39:23Z</time>
      </trkpt>
      <trkpt lat="44.44553" lon="2.42175">
        <ele>338</ele>
        <time>2008-10-07T08:39:38Z</time>
      </trkpt>
      <trkpt lat="44.44549" lon="2.42188">
        <ele>338</ele>
        <time>2008-10-07T08:39:50Z</time>
      </trkpt>
      <trkpt lat="44.44546" lon="2.422">
        <ele>338</ele>
        <time>2008-10-07T08:40:02Z</time>
      </trkpt>
      <trkpt lat="44.44547" lon="2.42213">
        <ele>345</ele>
        <time>2008-10-07T08:40:12Z</time>
      </trkpt>
      <trkpt lat="44.44549" lon="2.42225">
        <ele>345</ele>
        <time>2008-10-07T08:40:21Z</time>
      </trkpt>
      <trkpt lat="44.44551" lon="2.42238">
        <ele>345</ele>
        <time>2008-10-07T08:40:30Z</time>
      </trkpt>
      <trkpt lat="44.44549" lon="2.42251">
        <ele>345</ele>
        <time>2008-10-07T08:40:40Z</time>
      </trkpt>
      <trkpt lat="44.44543" lon="2.4226">
        <ele>345</ele>
        <time>2008-10-07T08:40:48Z</time>
      </trkpt>
      <trkpt lat="44.44538" lon="2.42271">
        <ele>345</ele>
        <time>2008-10-07T08:40:58Z</time>
      </trkpt>
      <trkpt lat="44.44531" lon="2.42281">
        <ele>345</ele>
        <time>2008-10-07T08:41:07Z</time>
      </trkpt>
      <trkpt lat="44.44526" lon="2.42292">
        <ele>345</ele>
        <time>2008-10-07T08:41:18Z</time>
      </trkpt>
      <trkpt lat="44.4452" lon="2.42302">
        <ele>351</ele>
        <time>2008-10-07T08:41:30Z</time>
      </trkpt>
      <trkpt lat="44.44514" lon="2.42311">
        <ele>351</ele>
        <time>2008-10-07T08:41:38Z</time>
      </trkpt>
      <trkpt lat="44.44509" lon="2.42321">
        <ele>351</ele>
        <time>2008-10-07T08:41:49Z</time>
      </trkpt>
      <trkpt lat="44.44502" lon="2.4233">
        <ele>351</ele>
        <time>2008-10-07T08:41:56Z</time>
      </trkpt>
      <trkpt lat="44.44493" lon="2.42337">
        <ele>363</ele>
        <time>2008-10-07T08:42:08Z</time>
      </trkpt>
      <trkpt lat="44.44489" lon="2.42348">
        <ele>363</ele>
        <time>2008-10-07T08:42:19Z</time>
      </trkpt>
      <trkpt lat="44.4448" lon="2.42354">
        <ele>363</ele>
        <time>2008-10-07T08:42:31Z</time>
      </trkpt>
      <trkpt lat="44.44478" lon="2.42366">
        <ele>363</ele>
        <time>2008-10-07T08:42:43Z</time>
      </trkpt>
      <trkpt lat="44.44473" lon="2.42376">
        <ele>363</ele>
        <time>2008-10-07T08:42:56Z</time>
      </trkpt>
      <trkpt lat="44.44468" lon="2.42388">
        <ele>363</ele>
        <time>2008-10-07T08:43:08Z</time>
      </trkpt>
      <trkpt lat="44.44461" lon="2.42398">
        <ele>363</ele>
        <time>2008-10-07T08:43:21Z</time>
      </trkpt>
      <trkpt lat="44.44453" lon="2.42405">
        <ele>363</ele>
        <time>2008-10-07T08:43:31Z</time>
      </trkpt>
      <trkpt lat="44.44445" lon="2.42411">
        <ele>363</ele>
        <time>2008-10-07T08:43:41Z</time>
      </trkpt>
      <trkpt lat="44.44437" lon="2.42418">
        <ele>363</ele>
        <time>2008-10-07T08:43:52Z</time>
      </trkpt>
      <trkpt lat="44.44429" lon="2.42424">
        <ele>363</ele>
        <time>2008-10-07T08:44:01Z</time>
      </trkpt>
      <trkpt lat="44.44423" lon="2.42434">
        <ele>370</ele>
        <time>2008-10-07T08:44:15Z</time>
      </trkpt>
      <trkpt lat="44.44414" lon="2.4244">
        <ele>370</ele>
        <time>2008-10-07T08:44:51Z</time>
      </trkpt>
      <trkpt lat="44.44406" lon="2.42447">
        <ele>370</ele>
        <time>2008-10-07T08:44:59Z</time>
      </trkpt>
      <trkpt lat="44.44399" lon="2.42456">
        <ele>377</ele>
        <time>2008-10-07T08:45:11Z</time>
      </trkpt>
      <trkpt lat="44.44392" lon="2.42463">
        <ele>377</ele>
        <time>2008-10-07T08:45:26Z</time>
      </trkpt>
      <trkpt lat="44.44385" lon="2.42472">
        <ele>377</ele>
        <time>2008-10-07T08:45:37Z</time>
      </trkpt>
      <trkpt lat="44.44379" lon="2.42482">
        <ele>377</ele>
        <time>2008-10-07T08:45:47Z</time>
      </trkpt>
      <trkpt lat="44.44372" lon="2.42491">
        <ele>377</ele>
        <time>2008-10-07T08:45:59Z</time>
      </trkpt>
      <trkpt lat="44.44365" lon="2.42498">
        <ele>382</ele>
        <time>2008-10-07T08:46:09Z</time>
      </trkpt>
      <trkpt lat="44.44356" lon="2.42504">
        <ele>388</ele>
        <time>2008-10-07T08:46:25Z</time>
      </trkpt>
      <trkpt lat="44.44349" lon="2.4251">
        <ele>388</ele>
        <time>2008-10-07T08:46:37Z</time>
      </trkpt>
      <trkpt lat="44.4434" lon="2.42516">
        <ele>388</ele>
        <time>2008-10-07T08:46:50Z</time>
      </trkpt>
      <trkpt lat="44.44332" lon="2.42522">
        <ele>393</ele>
        <time>2008-10-07T08:47:01Z</time>
      </trkpt>
      <trkpt lat="44.44323" lon="2.42525">
        <ele>393</ele>
        <time>2008-10-07T08:47:13Z</time>
      </trkpt>
      <trkpt lat="44.44314" lon="2.4253">
        <ele>393</ele>
        <time>2008-10-07T08:47:26Z</time>
      </trkpt>
      <trkpt lat="44.44305" lon="2.42531">
        <ele>393</ele>
        <time>2008-10-07T08:47:41Z</time>
      </trkpt>
      <trkpt lat="44.44296" lon="2.42532">
        <ele>403</ele>
        <time>2008-10-07T08:47:54Z</time>
      </trkpt>
      <trkpt lat="44.44287" lon="2.42533">
        <ele>403</ele>
        <time>2008-10-07T08:48:14Z</time>
      </trkpt>
      <trkpt lat="44.44278" lon="2.42536">
        <ele>410</ele>
        <time>2008-10-07T08:48:25Z</time>
      </trkpt>
      <trkpt lat="44.44269" lon="2.42537">
        <ele>410</ele>
        <time>2008-10-07T08:48:38Z</time>
      </trkpt>
      <trkpt lat="44.4426" lon="2.4254">
        <ele>410</ele>
        <time>2008-10-07T08:48:51Z</time>
      </trkpt>
      <trkpt lat="44.44251" lon="2.42543">
        <ele>417</ele>
        <time>2008-10-07T08:49:08Z</time>
      </trkpt>
      <trkpt lat="44.44243" lon="2.42539">
        <ele>408</ele>
        <time>2008-10-07T08:49:36Z</time>
      </trkpt>
      <trkpt lat="44.44241" lon="2.42551">
        <ele>414</ele>
        <time>2008-10-07T08:49:49Z</time>
      </trkpt>
      <trkpt lat="44.44237" lon="2.42563">
        <ele>414</ele>
        <time>2008-10-07T08:50:01Z</time>
      </trkpt>
      <trkpt lat="44.44232" lon="2.42574">
        <ele>419</ele>
        <time>2008-10-07T08:50:11Z</time>
      </trkpt>
      <trkpt lat="44.44226" lon="2.42585">
        <ele>419</ele>
        <time>2008-10-07T08:50:20Z</time>
      </trkpt>
      <trkpt lat="44.44221" lon="2.42595">
        <ele>419</ele>
        <time>2008-10-07T08:50:29Z</time>
      </trkpt>
      <trkpt lat="44.44215" lon="2.42604">
        <ele>419</ele>
        <time>2008-10-07T08:50:55Z</time>
      </trkpt>
      <trkpt lat="44.44208" lon="2.42613">
        <ele>419</ele>
        <time>2008-10-07T08:51:06Z</time>
      </trkpt>
      <trkpt lat="44.44202" lon="2.42623">
        <ele>426</ele>
        <time>2008-10-07T08:51:17Z</time>
      </trkpt>
      <trkpt lat="44.44198" lon="2.42634">
        <ele>426</ele>
        <time>2008-10-07T08:51:28Z</time>
      </trkpt>
      <trkpt lat="44.44193" lon="2.42644">
        <ele>426</ele>
        <time>2008-10-07T08:51:39Z</time>
      </trkpt>
      <trkpt lat="44.44188" lon="2.42655">
        <ele>426</ele>
        <time>2008-10-07T08:51:53Z</time>
      </trkpt>
      <trkpt lat="44.44182" lon="2.42666">
        <ele>426</ele>
        <time>2008-10-07T08:52:03Z</time>
      </trkpt>
      <trkpt lat="44.44177" lon="2.42675">
        <ele>433</ele>
        <time>2008-10-07T08:52:15Z</time>
      </trkpt>
      <trkpt lat="44.44173" lon="2.42686">
        <ele>433</ele>
        <time>2008-10-07T08:52:27Z</time>
      </trkpt>
      <trkpt lat="44.44167" lon="2.42696">
        <ele>433</ele>
        <time>2008-10-07T08:52:39Z</time>
      </trkpt>
      <trkpt lat="44.44161" lon="2.42706">
        <ele>433</ele>
        <time>2008-10-07T08:52:50Z</time>
      </trkpt>
      <trkpt lat="44.44156" lon="2.42718">
        <ele>440</ele>
        <time>2008-10-07T08:53:03Z</time>
      </trkpt>
      <trkpt lat="44.44151" lon="2.42728">
        <ele>440</ele>
        <time>2008-10-07T08:53:15Z</time>
      </trkpt>
      <trkpt lat="44.44146" lon="2.42738">
        <ele>440</ele>
        <time>2008-10-07T08:53:25Z</time>
      </trkpt>
      <trkpt lat="44.44142" lon="2.42749">
        <ele>440</ele>
        <time>2008-10-07T08:53:34Z</time>
      </trkpt>
      <trkpt lat="44.44136" lon="2.4276">
        <ele>440</ele>
        <time>2008-10-07T08:53:45Z</time>
      </trkpt>
      <trkpt lat="44.44135" lon="2.42772">
        <ele>446</ele>
        <time>2008-10-07T08:53:57Z</time>
      </trkpt>
      <trkpt lat="44.4413" lon="2.42782">
        <ele>446</ele>
        <time>2008-10-07T08:54:07Z</time>
      </trkpt>
      <trkpt lat="44.44123" lon="2.42792">
        <ele>446</ele>
        <time>2008-10-07T08:54:16Z</time>
      </trkpt>
      <trkpt lat="44.44117" lon="2.42801">
        <ele>446</ele>
        <time>2008-10-07T08:54:26Z</time>
      </trkpt>
      <trkpt lat="44.4411" lon="2.42809">
        <ele>446</ele>
        <time>2008-10-07T08:54:37Z</time>
      </trkpt>
      <trkpt lat="44.44103" lon="2.42817">
        <ele>453</ele>
        <time>2008-10-07T08:54:49Z</time>
      </trkpt>
      <trkpt lat="44.44096" lon="2.42827">
        <ele>453</ele>
        <time>2008-10-07T08:55:01Z</time>
      </trkpt>
      <trkpt lat="44.4409" lon="2.42837">
        <ele>453</ele>
        <time>2008-10-07T08:55:13Z</time>
      </trkpt>
      <trkpt lat="44.44086" lon="2.42848">
        <ele>453</ele>
        <time>2008-10-07T08:55:24Z</time>
      </trkpt>
      <trkpt lat="44.44081" lon="2.42859">
        <ele>463</ele>
        <time>2008-10-07T08:55:40Z</time>
      </trkpt>
      <trkpt lat="44.44076" lon="2.42869">
        <ele>463</ele>
        <time>2008-10-07T08:55:52Z</time>
      </trkpt>
      <trkpt lat="44.4407" lon="2.42879">
        <ele>463</ele>
        <time>2008-10-07T08:56:06Z</time>
      </trkpt>
      <trkpt lat="44.44065" lon="2.42889">
        <ele>463</ele>
        <time>2008-10-07T08:56:16Z</time>
      </trkpt>
      <trkpt lat="44.44059" lon="2.42899">
        <ele>470</ele>
        <time>2008-10-07T08:56:29Z</time>
      </trkpt>
      <trkpt lat="44.44054" lon="2.4291">
        <ele>470</ele>
        <time>2008-10-07T08:56:43Z</time>
      </trkpt>
      <trkpt lat="44.44051" lon="2.42922">
        <ele>470</ele>
        <time>2008-10-07T08:56:56Z</time>
      </trkpt>
      <trkpt lat="44.44044" lon="2.42931">
        <ele>470</ele>
        <time>2008-10-07T08:57:06Z</time>
      </trkpt>
      <trkpt lat="44.44039" lon="2.4294">
        <ele>470</ele>
        <time>2008-10-07T08:57:18Z</time>
      </trkpt>
      <trkpt lat="44.44034" lon="2.42951">
        <ele>470</ele>
        <time>2008-10-07T08:57:28Z</time>
      </trkpt>
      <trkpt lat="44.44031" lon="2.42963">
        <ele>476</ele>
        <time>2008-10-07T08:57:42Z</time>
      </trkpt>
      <trkpt lat="44.44026" lon="2.42975">
        <ele>482</ele>
        <time>2008-10-07T08:57:58Z</time>
      </trkpt>
      <trkpt lat="44.44022" lon="2.42987">
        <ele>482</ele>
        <time>2008-10-07T08:58:11Z</time>
      </trkpt>
      <trkpt lat="44.44018" lon="2.42999">
        <ele>482</ele>
        <time>2008-10-07T08:58:24Z</time>
      </trkpt>
      <trkpt lat="44.44015" lon="2.43011">
        <ele>482</ele>
        <time>2008-10-07T08:58:36Z</time>
      </trkpt>
      <trkpt lat="44.4401" lon="2.43021">
        <ele>482</ele>
        <time>2008-10-07T08:58:45Z</time>
      </trkpt>
      <trkpt lat="44.44007" lon="2.43033">
        <ele>482</ele>
        <time>2008-10-07T08:58:56Z</time>
      </trkpt>
      <trkpt lat="44.44005" lon="2.43046">
        <ele>482</ele>
        <time>2008-10-07T08:59:07Z</time>
      </trkpt>
      <trkpt lat="44.44004" lon="2.43058">
        <ele>488</ele>
        <time>2008-10-07T08:59:18Z</time>
      </trkpt>
      <trkpt lat="44.44001" lon="2.4307">
        <ele>488</ele>
        <time>2008-10-07T08:59:29Z</time>
      </trkpt>
      <trkpt lat="44.43997" lon="2.43082">
        <ele>488</ele>
        <time>2008-10-07T08:59:43Z</time>
      </trkpt>
      <trkpt lat="44.43995" lon="2.43096">
        <ele>494</ele>
        <time>2008-10-07T08:59:57Z</time>
      </trkpt>
      <trkpt lat="44.43993" lon="2.4311">
        <ele>494</ele>
        <time>2008-10-07T09:00:12Z</time>
      </trkpt>
      <trkpt lat="44.43988" lon="2.43121">
        <ele>494</ele>
        <time>2008-10-07T09:00:21Z</time>
      </trkpt>
      <trkpt lat="44.43984" lon="2.43132">
        <ele>500</ele>
        <time>2008-10-07T09:00:37Z</time>
      </trkpt>
      <trkpt lat="44.43981" lon="2.43143">
        <ele>500</ele>
        <time>2008-10-07T09:02:57Z</time>
      </trkpt>
      <trkpt lat="44.43988" lon="2.43152">
        <ele>500</ele>
        <time>2008-10-07T09:03:44Z</time>
      </trkpt>
      <trkpt lat="44.43995" lon="2.43161">
        <ele>500</ele>
        <time>2008-10-07T09:03:53Z</time>
      </trkpt>
      <trkpt lat="44.44002" lon="2.43169">
        <ele>500</ele>
        <time>2008-10-07T09:04:02Z</time>
      </trkpt>
      <trkpt lat="44.44009" lon="2.43178">
        <ele>506</ele>
        <time>2008-10-07T09:04:11Z</time>
      </trkpt>
      <trkpt lat="44.44009" lon="2.43193">
        <ele>506</ele>
        <time>2008-10-07T09:04:21Z</time>
      </trkpt>
      <trkpt lat="44.44005" lon="2.43205">
        <ele>506</ele>
        <time>2008-10-07T09:04:29Z</time>
      </trkpt>
      <trkpt lat="44.44003" lon="2.43217">
        <ele>506</ele>
        <time>2008-10-07T09:04:42Z</time>
      </trkpt>
      <trkpt lat="44.43998" lon="2.43228">
        <ele>506</ele>
        <time>2008-10-07T09:04:51Z</time>
      </trkpt>
      <trkpt lat="44.43996" lon="2.4324">
        <ele>506</ele>
        <time>2008-10-07T09:04:59Z</time>
      </trkpt>
      <trkpt lat="44.43994" lon="2.43252">
        <ele>506</ele>
        <time>2008-10-07T09:05:08Z</time>
      </trkpt>
      <trkpt lat="44.43995" lon="2.43266">
        <ele>506</ele>
        <time>2008-10-07T09:05:20Z</time>
      </trkpt>
      <trkpt lat="44.43995" lon="2.43279">
        <ele>506</ele>
        <time>2008-10-07T09:05:29Z</time>
      </trkpt>
      <trkpt lat="44.43993" lon="2.43293">
        <ele>506</ele>
        <time>2008-10-07T09:05:38Z</time>
      </trkpt>
      <trkpt lat="44.43991" lon="2.43304">
        <ele>506</ele>
        <time>2008-10-07T09:05:44Z</time>
      </trkpt>
      <trkpt lat="44.43987" lon="2.43316">
        <ele>506</ele>
        <time>2008-10-07T09:05:51Z</time>
      </trkpt>
      <trkpt lat="44.43983" lon="2.43328">
        <ele>506</ele>
        <time>2008-10-07T09:05:58Z</time>
      </trkpt>
      <trkpt lat="44.43978" lon="2.43338">
        <ele>506</ele>
        <time>2008-10-07T09:06:05Z</time>
      </trkpt>
      <trkpt lat="44.43973" lon="2.43348">
        <ele>506</ele>
        <time>2008-10-07T09:06:12Z</time>
      </trkpt>
      <trkpt lat="44.43968" lon="2.43358">
        <ele>506</ele>
        <time>2008-10-07T09:06:19Z</time>
      </trkpt>
      <trkpt lat="44.43962" lon="2.43368">
        <ele>506</ele>
        <time>2008-10-07T09:06:26Z</time>
      </trkpt>
      <trkpt lat="44.43956" lon="2.43378">
        <ele>506</ele>
        <time>2008-10-07T09:06:33Z</time>
      </trkpt>
      <trkpt lat="44.43949" lon="2.43388">
        <ele>506</ele>
        <time>2008-10-07T09:06:41Z</time>
      </trkpt>
      <trkpt lat="44.43942" lon="2.43398">
        <ele>506</ele>
        <time>2008-10-07T09:06:48Z</time>
      </trkpt>
      <trkpt lat="44.43936" lon="2.43408">
        <ele>506</ele>
        <time>2008-10-07T09:06:55Z</time>
      </trkpt>
      <trkpt lat="44.4393" lon="2.43417">
        <ele>506</ele>
        <time>2008-10-07T09:07:02Z</time>
      </trkpt>
      <trkpt lat="44.43924" lon="2.43427">
        <ele>506</ele>
        <time>2008-10-07T09:07:09Z</time>
      </trkpt>
      <trkpt lat="44.43917" lon="2.43437">
        <ele>506</ele>
        <time>2008-10-07T09:07:16Z</time>
      </trkpt>
      <trkpt lat="44.43912" lon="2.43448">
        <ele>506</ele>
        <time>2008-10-07T09:07:24Z</time>
      </trkpt>
      <trkpt lat="44.43908" lon="2.4346">
        <ele>506</ele>
        <time>2008-10-07T09:07:31Z</time>
      </trkpt>
      <trkpt lat="44.43911" lon="2.43472">
        <ele>506</ele>
        <time>2008-10-07T09:07:44Z</time>
      </trkpt>
      <trkpt lat="44.43913" lon="2.43484">
        <ele>506</ele>
        <time>2008-10-07T09:07:52Z</time>
      </trkpt>
      <trkpt lat="44.43918" lon="2.43495">
        <ele>506</ele>
        <time>2008-10-07T09:08:01Z</time>
      </trkpt>
      <trkpt lat="44.43924" lon="2.43505">
        <ele>506</ele>
        <time>2008-10-07T09:08:09Z</time>
      </trkpt>
      <trkpt lat="44.4393" lon="2.43514">
        <ele>506</ele>
        <time>2008-10-07T09:08:17Z</time>
      </trkpt>
      <trkpt lat="44.43936" lon="2.43523">
        <ele>506</ele>
        <time>2008-10-07T09:08:25Z</time>
      </trkpt>
      <trkpt lat="44.4394" lon="2.43534">
        <ele>506</ele>
        <time>2008-10-07T09:08:33Z</time>
      </trkpt>
      <trkpt lat="44.43946" lon="2.43546">
        <ele>506</ele>
        <time>2008-10-07T09:08:44Z</time>
      </trkpt>
      <trkpt lat="44.4395" lon="2.43557">
        <ele>506</ele>
        <time>2008-10-07T09:08:55Z</time>
      </trkpt>
      <trkpt lat="44.43956" lon="2.43568">
        <ele>506</ele>
        <time>2008-10-07T09:09:06Z</time>
      </trkpt>
      <trkpt lat="44.4396" lon="2.4358">
        <ele>500</ele>
        <time>2008-10-07T09:09:15Z</time>
      </trkpt>
      <trkpt lat="44.43962" lon="2.43594">
        <ele>500</ele>
        <time>2008-10-07T09:09:33Z</time>
      </trkpt>
      <trkpt lat="44.43966" lon="2.43606">
        <ele>500</ele>
        <time>2008-10-07T09:09:41Z</time>
      </trkpt>
      <trkpt lat="44.43971" lon="2.43617">
        <ele>500</ele>
        <time>2008-10-07T09:09:55Z</time>
      </trkpt>
      <trkpt lat="44.43974" lon="2.43629">
        <ele>500</ele>
        <time>2008-10-07T09:10:07Z</time>
      </trkpt>
      <trkpt lat="44.43977" lon="2.4364">
        <ele>494</ele>
        <time>2008-10-07T09:10:17Z</time>
      </trkpt>
      <trkpt lat="44.43978" lon="2.43654">
        <ele>494</ele>
        <time>2008-10-07T09:10:29Z</time>
      </trkpt>
      <trkpt lat="44.4398" lon="2.43666">
        <ele>494</ele>
        <time>2008-10-07T09:10:45Z</time>
      </trkpt>
      <trkpt lat="44.43984" lon="2.43678">
        <ele>494</ele>
        <time>2008-10-07T09:10:54Z</time>
      </trkpt>
      <trkpt lat="44.43988" lon="2.43689">
        <ele>494</ele>
        <time>2008-10-07T09:11:02Z</time>
      </trkpt>
      <trkpt lat="44.43991" lon="2.43702">
        <ele>494</ele>
        <time>2008-10-07T09:11:13Z</time>
      </trkpt>
      <trkpt lat="44.43991" lon="2.43715">
        <ele>494</ele>
        <time>2008-10-07T09:11:28Z</time>
      </trkpt>
      <trkpt lat="44.43996" lon="2.43725">
        <ele>494</ele>
        <time>2008-10-07T09:11:38Z</time>
      </trkpt>
      <trkpt lat="44.44" lon="2.43738">
        <ele>494</ele>
        <time>2008-10-07T09:11:50Z</time>
      </trkpt>
      <trkpt lat="44.44003" lon="2.4375">
        <ele>494</ele>
        <time>2008-10-07T09:12:00Z</time>
      </trkpt>
      <trkpt lat="44.44007" lon="2.43761">
        <ele>494</ele>
        <time>2008-10-07T09:12:12Z</time>
      </trkpt>
      <trkpt lat="44.44011" lon="2.43772">
        <ele>494</ele>
        <time>2008-10-07T09:12:20Z</time>
      </trkpt>
      <trkpt lat="44.44014" lon="2.43787">
        <ele>494</ele>
        <time>2008-10-07T09:12:31Z</time>
      </trkpt>
      <trkpt lat="44.44019" lon="2.43797">
        <ele>494</ele>
        <time>2008-10-07T09:12:40Z</time>
      </trkpt>
      <trkpt lat="44.4402" lon="2.4381">
        <ele>494</ele>
        <time>2008-10-07T09:12:50Z</time>
      </trkpt>
      <trkpt lat="44.44022" lon="2.43823">
        <ele>494</ele>
        <time>2008-10-07T09:12:57Z</time>
      </trkpt>
      <trkpt lat="44.44023" lon="2.43835">
        <ele>494</ele>
        <time>2008-10-07T09:13:05Z</time>
      </trkpt>
      <trkpt lat="44.44027" lon="2.4385">
        <ele>494</ele>
        <time>2008-10-07T09:13:13Z</time>
      </trkpt>
      <trkpt lat="44.44031" lon="2.43862">
        <ele>494</ele>
        <time>2008-10-07T09:13:19Z</time>
      </trkpt>
      <trkpt lat="44.44034" lon="2.43874">
        <ele>494</ele>
        <time>2008-10-07T09:13:25Z</time>
      </trkpt>
      <trkpt lat="44.44039" lon="2.43885">
        <ele>494</ele>
        <time>2008-10-07T09:13:33Z</time>
      </trkpt>
      <trkpt lat="44.44047" lon="2.43894">
        <ele>489</ele>
        <time>2008-10-07T09:13:41Z</time>
      </trkpt>
      <trkpt lat="44.44052" lon="2.43903">
        <ele>489</ele>
        <time>2008-10-07T09:13:49Z</time>
      </trkpt>
      <trkpt lat="44.44059" lon="2.43913">
        <ele>489</ele>
        <time>2008-10-07T09:13:57Z</time>
      </trkpt>
      <trkpt lat="44.44065" lon="2.43922">
        <ele>489</ele>
        <time>2008-10-07T09:14:05Z</time>
      </trkpt>
      <trkpt lat="44.44072" lon="2.43932">
        <ele>489</ele>
        <time>2008-10-07T09:14:14Z</time>
      </trkpt>
      <trkpt lat="44.44078" lon="2.43941">
        <ele>489</ele>
        <time>2008-10-07T09:14:22Z</time>
      </trkpt>
      <trkpt lat="44.44085" lon="2.43951">
        <ele>489</ele>
        <time>2008-10-07T09:14:30Z</time>
      </trkpt>
      <trkpt lat="44.44092" lon="2.43961">
        <ele>489</ele>
        <time>2008-10-07T09:14:38Z</time>
      </trkpt>
      <trkpt lat="44.44099" lon="2.4397">
        <ele>489</ele>
        <time>2008-10-07T09:14:45Z</time>
      </trkpt>
      <trkpt lat="44.44107" lon="2.43979">
        <ele>489</ele>
        <time>2008-10-07T09:14:52Z</time>
      </trkpt>
      <trkpt lat="44.44113" lon="2.43988">
        <ele>489</ele>
        <time>2008-10-07T09:14:59Z</time>
      </trkpt>
      <trkpt lat="44.44119" lon="2.43997">
        <ele>489</ele>
        <time>2008-10-07T09:15:07Z</time>
      </trkpt>
      <trkpt lat="44.44126" lon="2.44007">
        <ele>489</ele>
        <time>2008-10-07T09:15:15Z</time>
      </trkpt>
      <trkpt lat="44.44133" lon="2.44018">
        <ele>489</ele>
        <time>2008-10-07T09:15:23Z</time>
      </trkpt>
      <trkpt lat="44.44137" lon="2.44028">
        <ele>489</ele>
        <time>2008-10-07T09:15:30Z</time>
      </trkpt>
      <trkpt lat="44.44144" lon="2.44037">
        <ele>489</ele>
        <time>2008-10-07T09:15:38Z</time>
      </trkpt>
      <trkpt lat="44.44152" lon="2.44045">
        <ele>483</ele>
        <time>2008-10-07T09:16:05Z</time>
      </trkpt>
      <trkpt lat="44.44156" lon="2.44056">
        <ele>483</ele>
        <time>2008-10-07T09:16:14Z</time>
      </trkpt>
      <trkpt lat="44.44166" lon="2.44054">
        <ele>483</ele>
        <time>2008-10-07T09:16:29Z</time>
      </trkpt>
      <trkpt lat="44.44175" lon="2.44056">
        <ele>483</ele>
        <time>2008-10-07T09:16:40Z</time>
      </trkpt>
      <trkpt lat="44.44182" lon="2.44062">
        <ele>488</ele>
        <time>2008-10-07T09:16:51Z</time>
      </trkpt>
      <trkpt lat="44.44191" lon="2.44067">
        <ele>488</ele>
        <time>2008-10-07T09:16:58Z</time>
      </trkpt>
      <trkpt lat="44.44199" lon="2.44071">
        <ele>488</ele>
        <time>2008-10-07T09:17:06Z</time>
      </trkpt>
      <trkpt lat="44.44208" lon="2.44073">
        <ele>488</ele>
        <time>2008-10-07T09:17:15Z</time>
      </trkpt>
      <trkpt lat="44.44217" lon="2.44078">
        <ele>488</ele>
        <time>2008-10-07T09:17:23Z</time>
      </trkpt>
      <trkpt lat="44.44226" lon="2.44083">
        <ele>488</ele>
        <time>2008-10-07T09:17:31Z</time>
      </trkpt>
      <trkpt lat="44.44235" lon="2.44086">
        <ele>488</ele>
        <time>2008-10-07T09:17:39Z</time>
      </trkpt>
      <trkpt lat="44.44244" lon="2.44092">
        <ele>483</ele>
        <time>2008-10-07T09:17:47Z</time>
      </trkpt>
      <trkpt lat="44.44253" lon="2.44096">
        <ele>483</ele>
        <time>2008-10-07T09:17:55Z</time>
      </trkpt>
      <trkpt lat="44.44261" lon="2.44099">
        <ele>483</ele>
        <time>2008-10-07T09:18:02Z</time>
      </trkpt>
      <trkpt lat="44.4427" lon="2.44103">
        <ele>483</ele>
        <time>2008-10-07T09:18:10Z</time>
      </trkpt>
      <trkpt lat="44.44278" lon="2.44106">
        <ele>483</ele>
        <time>2008-10-07T09:18:18Z</time>
      </trkpt>
      <trkpt lat="44.44287" lon="2.44111">
        <ele>483</ele>
        <time>2008-10-07T09:18:25Z</time>
      </trkpt>
      <trkpt lat="44.44296" lon="2.44114">
        <ele>483</ele>
        <time>2008-10-07T09:18:34Z</time>
      </trkpt>
      <trkpt lat="44.44306" lon="2.44114">
        <ele>483</ele>
        <time>2008-10-07T09:18:43Z</time>
      </trkpt>
      <trkpt lat="44.44314" lon="2.4411">
        <ele>483</ele>
        <time>2008-10-07T09:18:51Z</time>
      </trkpt>
      <trkpt lat="44.4432" lon="2.441">
        <ele>483</ele>
        <time>2008-10-07T09:18:58Z</time>
      </trkpt>
      <trkpt lat="44.44324" lon="2.44089">
        <ele>483</ele>
        <time>2008-10-07T09:19:07Z</time>
      </trkpt>
      <trkpt lat="44.4433" lon="2.44079">
        <ele>483</ele>
        <time>2008-10-07T09:19:15Z</time>
      </trkpt>
      <trkpt lat="44.44336" lon="2.44071">
        <ele>483</ele>
        <time>2008-10-07T09:19:22Z</time>
      </trkpt>
      <trkpt lat="44.44342" lon="2.44061">
        <ele>483</ele>
        <time>2008-10-07T09:19:29Z</time>
      </trkpt>
      <trkpt lat="44.44349" lon="2.4405">
        <ele>483</ele>
        <time>2008-10-07T09:19:37Z</time>
      </trkpt>
      <trkpt lat="44.44354" lon="2.4404">
        <ele>483</ele>
        <time>2008-10-07T09:19:49Z</time>
      </trkpt>
      <trkpt lat="44.44356" lon="2.44027">
        <ele>483</ele>
        <time>2008-10-07T09:19:57Z</time>
      </trkpt>
      <trkpt lat="44.44363" lon="2.44018">
        <ele>483</ele>
        <time>2008-10-07T09:20:08Z</time>
      </trkpt>
      <trkpt lat="44.44368" lon="2.44008">
        <ele>483</ele>
        <time>2008-10-07T09:20:19Z</time>
      </trkpt>
      <trkpt lat="44.44372" lon="2.43996">
        <ele>483</ele>
        <time>2008-10-07T09:20:28Z</time>
      </trkpt>
      <trkpt lat="44.44376" lon="2.43985">
        <ele>483</ele>
        <time>2008-10-07T09:20:35Z</time>
      </trkpt>
      <trkpt lat="44.44381" lon="2.43973">
        <ele>483</ele>
        <time>2008-10-07T09:20:44Z</time>
      </trkpt>
      <trkpt lat="44.44385" lon="2.43962">
        <ele>489</ele>
        <time>2008-10-07T09:20:52Z</time>
      </trkpt>
      <trkpt lat="44.44388" lon="2.4395">
        <ele>489</ele>
        <time>2008-10-07T09:20:59Z</time>
      </trkpt>
      <trkpt lat="44.44391" lon="2.43937">
        <ele>489</ele>
        <time>2008-10-07T09:21:07Z</time>
      </trkpt>
      <trkpt lat="44.44394" lon="2.43924">
        <ele>489</ele>
        <time>2008-10-07T09:21:15Z</time>
      </trkpt>
      <trkpt lat="44.44398" lon="2.43912">
        <ele>489</ele>
        <time>2008-10-07T09:21:24Z</time>
      </trkpt>
      <trkpt lat="44.44401" lon="2.43899">
        <ele>489</ele>
        <time>2008-10-07T09:21:32Z</time>
      </trkpt>
      <trkpt lat="44.44403" lon="2.43886">
        <ele>489</ele>
        <time>2008-10-07T09:21:39Z</time>
      </trkpt>
      <trkpt lat="44.44409" lon="2.43895">
        <ele>489</ele>
        <time>2008-10-07T09:21:51Z</time>
      </trkpt>
      <trkpt lat="44.4441" lon="2.43908">
        <ele>489</ele>
        <time>2008-10-07T09:22:00Z</time>
      </trkpt>
      <trkpt lat="44.4441" lon="2.4392">
        <ele>489</ele>
        <time>2008-10-07T09:22:10Z</time>
      </trkpt>
      <trkpt lat="44.44411" lon="2.43934">
        <ele>489</ele>
        <time>2008-10-07T09:22:18Z</time>
      </trkpt>
      <trkpt lat="44.44411" lon="2.43947">
        <ele>489</ele>
        <time>2008-10-07T09:22:26Z</time>
      </trkpt>
      <trkpt lat="44.44412" lon="2.43959">
        <ele>489</ele>
        <time>2008-10-07T09:22:33Z</time>
      </trkpt>
      <trkpt lat="44.44413" lon="2.43972">
        <ele>489</ele>
        <time>2008-10-07T09:22:41Z</time>
      </trkpt>
      <trkpt lat="44.44414" lon="2.43985">
        <ele>489</ele>
        <time>2008-10-07T09:22:49Z</time>
      </trkpt>
      <trkpt lat="44.44417" lon="2.43998">
        <ele>489</ele>
        <time>2008-10-07T09:22:56Z</time>
      </trkpt>
      <trkpt lat="44.4442" lon="2.4401">
        <ele>489</ele>
        <time>2008-10-07T09:23:04Z</time>
      </trkpt>
      <trkpt lat="44.44424" lon="2.44024">
        <ele>489</ele>
        <time>2008-10-07T09:23:12Z</time>
      </trkpt>
      <trkpt lat="44.44426" lon="2.44036">
        <ele>489</ele>
        <time>2008-10-07T09:23:20Z</time>
      </trkpt>
      <trkpt lat="44.44431" lon="2.44047">
        <ele>489</ele>
        <time>2008-10-07T09:23:27Z</time>
      </trkpt>
      <trkpt lat="44.44433" lon="2.44059">
        <ele>489</ele>
        <time>2008-10-07T09:23:35Z</time>
      </trkpt>
      <trkpt lat="44.44436" lon="2.44071">
        <ele>489</ele>
        <time>2008-10-07T09:23:43Z</time>
      </trkpt>
      <trkpt lat="44.4444" lon="2.44084">
        <ele>489</ele>
        <time>2008-10-07T09:23:53Z</time>
      </trkpt>
      <trkpt lat="44.44444" lon="2.44096">
        <ele>489</ele>
        <time>2008-10-07T09:24:03Z</time>
      </trkpt>
      <trkpt lat="44.4445" lon="2.44107">
        <ele>489</ele>
        <time>2008-10-07T09:24:12Z</time>
      </trkpt>
      <trkpt lat="44.44455" lon="2.44118">
        <ele>489</ele>
        <time>2008-10-07T09:24:18Z</time>
      </trkpt>
      <trkpt lat="44.4446" lon="2.44129">
        <ele>489</ele>
        <time>2008-10-07T09:24:25Z</time>
      </trkpt>
      <trkpt lat="44.44466" lon="2.44138">
        <ele>489</ele>
        <time>2008-10-07T09:24:33Z</time>
      </trkpt>
      <trkpt lat="44.44471" lon="2.4415">
        <ele>489</ele>
        <time>2008-10-07T09:24:40Z</time>
      </trkpt>
      <trkpt lat="44.44476" lon="2.4416">
        <ele>489</ele>
        <time>2008-10-07T09:24:48Z</time>
      </trkpt>
      <trkpt lat="44.44479" lon="2.44172">
        <ele>489</ele>
        <time>2008-10-07T09:24:56Z</time>
      </trkpt>
      <trkpt lat="44.44482" lon="2.44184">
        <ele>489</ele>
        <time>2008-10-07T09:25:04Z</time>
      </trkpt>
      <trkpt lat="44.44491" lon="2.44183">
        <ele>489</ele>
        <time>2008-10-07T09:25:14Z</time>
      </trkpt>
      <trkpt lat="44.445" lon="2.44177">
        <ele>495</ele>
        <time>2008-10-07T09:25:27Z</time>
      </trkpt>
      <trkpt lat="44.44511" lon="2.44175">
        <ele>495</ele>
        <time>2008-10-07T09:25:35Z</time>
      </trkpt>
      <trkpt lat="44.4452" lon="2.4417">
        <ele>495</ele>
        <time>2008-10-07T09:25:43Z</time>
      </trkpt>
      <trkpt lat="44.44529" lon="2.44167">
        <ele>495</ele>
        <time>2008-10-07T09:25:51Z</time>
      </trkpt>
      <trkpt lat="44.44538" lon="2.44163">
        <ele>495</ele>
        <time>2008-10-07T09:25:59Z</time>
      </trkpt>
      <trkpt lat="44.44547" lon="2.44162">
        <ele>495</ele>
        <time>2008-10-07T09:26:05Z</time>
      </trkpt>
      <trkpt lat="44.44555" lon="2.44159">
        <ele>495</ele>
        <time>2008-10-07T09:26:13Z</time>
      </trkpt>
      <trkpt lat="44.44564" lon="2.44156">
        <ele>495</ele>
        <time>2008-10-07T09:26:22Z</time>
      </trkpt>
      <trkpt lat="44.44574" lon="2.44153">
        <ele>495</ele>
        <time>2008-10-07T09:26:31Z</time>
      </trkpt>
      <trkpt lat="44.44583" lon="2.44151">
        <ele>495</ele>
        <time>2008-10-07T09:26:39Z</time>
      </trkpt>
      <trkpt lat="44.44593" lon="2.4415">
        <ele>495</ele>
        <time>2008-10-07T09:26:46Z</time>
      </trkpt>
      <trkpt lat="44.44603" lon="2.4415">
        <ele>490</ele>
        <time>2008-10-07T09:26:53Z</time>
      </trkpt>
      <trkpt lat="44.44612" lon="2.44147">
        <ele>490</ele>
        <time>2008-10-07T09:27:02Z</time>
      </trkpt>
      <trkpt lat="44.44621" lon="2.44143">
        <ele>490</ele>
        <time>2008-10-07T09:27:10Z</time>
      </trkpt>
      <trkpt lat="44.44631" lon="2.44141">
        <ele>490</ele>
        <time>2008-10-07T09:27:18Z</time>
      </trkpt>
      <trkpt lat="44.4464" lon="2.44137">
        <ele>490</ele>
        <time>2008-10-07T09:27:25Z</time>
      </trkpt>
      <trkpt lat="44.44649" lon="2.44135">
        <ele>490</ele>
        <time>2008-10-07T09:27:32Z</time>
      </trkpt>
      <trkpt lat="44.44658" lon="2.44132">
        <ele>490</ele>
        <time>2008-10-07T09:27:39Z</time>
      </trkpt>
      <trkpt lat="44.44668" lon="2.44128">
        <ele>490</ele>
        <time>2008-10-07T09:27:47Z</time>
      </trkpt>
      <trkpt lat="44.44676" lon="2.44124">
        <ele>490</ele>
        <time>2008-10-07T09:27:55Z</time>
      </trkpt>
      <trkpt lat="44.44684" lon="2.4412">
        <ele>490</ele>
        <time>2008-10-07T09:28:01Z</time>
      </trkpt>
      <trkpt lat="44.44693" lon="2.44114">
        <ele>490</ele>
        <time>2008-10-07T09:28:09Z</time>
      </trkpt>
      <trkpt lat="44.44701" lon="2.44109">
        <ele>490</ele>
        <time>2008-10-07T09:28:16Z</time>
      </trkpt>
      <trkpt lat="44.4471" lon="2.44104">
        <ele>490</ele>
        <time>2008-10-07T09:28:23Z</time>
      </trkpt>
      <trkpt lat="44.44718" lon="2.44097">
        <ele>490</ele>
        <time>2008-10-07T09:28:32Z</time>
      </trkpt>
      <trkpt lat="44.44727" lon="2.44092">
        <ele>490</ele>
        <time>2008-10-07T09:28:40Z</time>
      </trkpt>
      <trkpt lat="44.44735" lon="2.44087">
        <ele>490</ele>
        <time>2008-10-07T09:28:48Z</time>
      </trkpt>
      <trkpt lat="44.44744" lon="2.44081">
        <ele>490</ele>
        <time>2008-10-07T09:28:56Z</time>
      </trkpt>
      <trkpt lat="44.44753" lon="2.44076">
        <ele>490</ele>
        <time>2008-10-07T09:29:04Z</time>
      </trkpt>
      <trkpt lat="44.44762" lon="2.44071">
        <ele>490</ele>
        <time>2008-10-07T09:29:11Z</time>
      </trkpt>
      <trkpt lat="44.4477" lon="2.44067">
        <ele>490</ele>
        <time>2008-10-07T09:29:18Z</time>
      </trkpt>
      <trkpt lat="44.44779" lon="2.44062">
        <ele>490</ele>
        <time>2008-10-07T09:29:26Z</time>
      </trkpt>
      <trkpt lat="44.44788" lon="2.44058">
        <ele>490</ele>
        <time>2008-10-07T09:29:34Z</time>
      </trkpt>
      <trkpt lat="44.44796" lon="2.44053">
        <ele>490</ele>
        <time>2008-10-07T09:29:42Z</time>
      </trkpt>
      <trkpt lat="44.44805" lon="2.44049">
        <ele>490</ele>
        <time>2008-10-07T09:29:50Z</time>
      </trkpt>
      <trkpt lat="44.44814" lon="2.44045">
        <ele>490</ele>
        <time>2008-10-07T09:29:58Z</time>
      </trkpt>
      <trkpt lat="44.44822" lon="2.4404">
        <ele>490</ele>
        <time>2008-10-07T09:30:06Z</time>
      </trkpt>
      <trkpt lat="44.44831" lon="2.44035">
        <ele>490</ele>
        <time>2008-10-07T09:30:14Z</time>
      </trkpt>
      <trkpt lat="44.44838" lon="2.44028">
        <ele>490</ele>
        <time>2008-10-07T09:30:22Z</time>
      </trkpt>
      <trkpt lat="44.44847" lon="2.44022">
        <ele>490</ele>
        <time>2008-10-07T09:30:30Z</time>
      </trkpt>
      <trkpt lat="44.44856" lon="2.44016">
        <ele>490</ele>
        <time>2008-10-07T09:30:38Z</time>
      </trkpt>
      <trkpt lat="44.44863" lon="2.44009">
        <ele>490</ele>
        <time>2008-10-07T09:30:46Z</time>
      </trkpt>
      <trkpt lat="44.44872" lon="2.44003">
        <ele>490</ele>
        <time>2008-10-07T09:30:54Z</time>
      </trkpt>
      <trkpt lat="44.44879" lon="2.43996">
        <ele>490</ele>
        <time>2008-10-07T09:31:02Z</time>
      </trkpt>
      <trkpt lat="44.44887" lon="2.43989">
        <ele>490</ele>
        <time>2008-10-07T09:31:10Z</time>
      </trkpt>
      <trkpt lat="44.44895" lon="2.43982">
        <ele>490</ele>
        <time>2008-10-07T09:31:18Z</time>
      </trkpt>
      <trkpt lat="44.44903" lon="2.43974">
        <ele>490</ele>
        <time>2008-10-07T09:31:26Z</time>
      </trkpt>
      <trkpt lat="44.44911" lon="2.43968">
        <ele>490</ele>
        <time>2008-10-07T09:31:34Z</time>
      </trkpt>
      <trkpt lat="44.44919" lon="2.43961">
        <ele>490</ele>
        <time>2008-10-07T09:31:42Z</time>
      </trkpt>
      <trkpt lat="44.44927" lon="2.43955">
        <ele>490</ele>
        <time>2008-10-07T09:31:50Z</time>
      </trkpt>
      <trkpt lat="44.44935" lon="2.43948">
        <ele>490</ele>
        <time>2008-10-07T09:31:58Z</time>
      </trkpt>
      <trkpt lat="44.44944" lon="2.43941">
        <ele>490</ele>
        <time>2008-10-07T09:32:06Z</time>
      </trkpt>
      <trkpt lat="44.44951" lon="2.43935">
        <ele>490</ele>
        <time>2008-10-07T09:32:14Z</time>
      </trkpt>
      <trkpt lat="44.4496" lon="2.43929">
        <ele>490</ele>
        <time>2008-10-07T09:32:22Z</time>
      </trkpt>
      <trkpt lat="44.44968" lon="2.4392">
        <ele>490</ele>
        <time>2008-10-07T09:32:30Z</time>
      </trkpt>
      <trkpt lat="44.44975" lon="2.43913">
        <ele>490</ele>
        <time>2008-10-07T09:32:38Z</time>
      </trkpt>
      <trkpt lat="44.44983" lon="2.43906">
        <ele>490</ele>
        <time>2008-10-07T09:32:47Z</time>
      </trkpt>
      <trkpt lat="44.44991" lon="2.43902">
        <ele>490</ele>
        <time>2008-10-07T09:32:55Z</time>
      </trkpt>
      <trkpt lat="44.45" lon="2.43902">
        <ele>490</ele>
        <time>2008-10-07T09:33:04Z</time>
      </trkpt>
      <trkpt lat="44.4501" lon="2.43903">
        <ele>490</ele>
        <time>2008-10-07T09:33:12Z</time>
      </trkpt>
      <trkpt lat="44.4502" lon="2.43903">
        <ele>490</ele>
        <time>2008-10-07T09:33:21Z</time>
      </trkpt>
      <trkpt lat="44.45029" lon="2.43902">
        <ele>490</ele>
        <time>2008-10-07T09:33:31Z</time>
      </trkpt>
      <trkpt lat="44.45038" lon="2.43899">
        <ele>490</ele>
        <time>2008-10-07T09:33:42Z</time>
      </trkpt>
      <trkpt lat="44.45047" lon="2.43897">
        <ele>490</ele>
        <time>2008-10-07T09:33:51Z</time>
      </trkpt>
      <trkpt lat="44.45056" lon="2.43894">
        <ele>490</ele>
        <time>2008-10-07T09:34:00Z</time>
      </trkpt>
      <trkpt lat="44.45066" lon="2.43893">
        <ele>490</ele>
        <time>2008-10-07T09:34:09Z</time>
      </trkpt>
      <trkpt lat="44.45076" lon="2.43891">
        <ele>490</ele>
        <time>2008-10-07T09:34:18Z</time>
      </trkpt>
      <trkpt lat="44.45085" lon="2.43888">
        <ele>490</ele>
        <time>2008-10-07T09:34:27Z</time>
      </trkpt>
      <trkpt lat="44.45094" lon="2.43885">
        <ele>490</ele>
        <time>2008-10-07T09:34:35Z</time>
      </trkpt>
      <trkpt lat="44.45103" lon="2.43882">
        <ele>490</ele>
        <time>2008-10-07T09:34:43Z</time>
      </trkpt>
      <trkpt lat="44.45112" lon="2.43878">
        <ele>490</ele>
        <time>2008-10-07T09:34:52Z</time>
      </trkpt>
      <trkpt lat="44.4512" lon="2.43875">
        <ele>496</ele>
        <time>2008-10-07T09:35:01Z</time>
      </trkpt>
      <trkpt lat="44.45128" lon="2.43871">
        <ele>496</ele>
        <time>2008-10-07T09:35:09Z</time>
      </trkpt>
      <trkpt lat="44.45137" lon="2.43867">
        <ele>496</ele>
        <time>2008-10-07T09:35:17Z</time>
      </trkpt>
      <trkpt lat="44.45145" lon="2.43863">
        <ele>496</ele>
        <time>2008-10-07T09:35:25Z</time>
      </trkpt>
      <trkpt lat="44.45154" lon="2.43857">
        <ele>496</ele>
        <time>2008-10-07T09:35:34Z</time>
      </trkpt>
      <trkpt lat="44.45163" lon="2.43852">
        <ele>502</ele>
        <time>2008-10-07T09:35:43Z</time>
      </trkpt>
      <trkpt lat="44.45171" lon="2.43848">
        <ele>502</ele>
        <time>2008-10-07T09:35:51Z</time>
      </trkpt>
      <trkpt lat="44.4518" lon="2.43847">
        <ele>502</ele>
        <time>2008-10-07T09:36:19Z</time>
      </trkpt>
      <trkpt lat="44.45188" lon="2.43842">
        <ele>502</ele>
        <time>2008-10-07T09:36:32Z</time>
      </trkpt>
      <trkpt lat="44.45195" lon="2.43835">
        <ele>502</ele>
        <time>2008-10-07T09:36:40Z</time>
      </trkpt>
      <trkpt lat="44.45203" lon="2.43829">
        <ele>502</ele>
        <time>2008-10-07T09:36:48Z</time>
      </trkpt>
      <trkpt lat="44.45211" lon="2.43822">
        <ele>502</ele>
        <time>2008-10-07T09:36:56Z</time>
      </trkpt>
      <trkpt lat="44.45219" lon="2.43814">
        <ele>502</ele>
        <time>2008-10-07T09:37:05Z</time>
      </trkpt>
      <trkpt lat="44.45226" lon="2.43806">
        <ele>502</ele>
        <time>2008-10-07T09:37:12Z</time>
      </trkpt>
      <trkpt lat="44.45233" lon="2.43798">
        <ele>502</ele>
        <time>2008-10-07T09:37:20Z</time>
      </trkpt>
      <trkpt lat="44.4524" lon="2.43791">
        <ele>502</ele>
        <time>2008-10-07T09:37:28Z</time>
      </trkpt>
      <trkpt lat="44.45247" lon="2.43783">
        <ele>502</ele>
        <time>2008-10-07T09:37:36Z</time>
      </trkpt>
      <trkpt lat="44.45255" lon="2.43775">
        <ele>502</ele>
        <time>2008-10-07T09:37:44Z</time>
      </trkpt>
      <trkpt lat="44.45262" lon="2.43767">
        <ele>502</ele>
        <time>2008-10-07T09:37:52Z</time>
      </trkpt>
      <trkpt lat="44.45269" lon="2.43759">
        <ele>502</ele>
        <time>2008-10-07T09:38:00Z</time>
      </trkpt>
      <trkpt lat="44.45276" lon="2.4375">
        <ele>502</ele>
        <time>2008-10-07T09:38:08Z</time>
      </trkpt>
      <trkpt lat="44.45284" lon="2.43743">
        <ele>502</ele>
        <time>2008-10-07T09:38:16Z</time>
      </trkpt>
      <trkpt lat="44.45291" lon="2.43735">
        <ele>502</ele>
        <time>2008-10-07T09:38:24Z</time>
      </trkpt>
      <trkpt lat="44.45298" lon="2.43727">
        <ele>502</ele>
        <time>2008-10-07T09:38:32Z</time>
      </trkpt>
      <trkpt lat="44.45306" lon="2.43721">
        <ele>507</ele>
        <time>2008-10-07T09:38:40Z</time>
      </trkpt>
      <trkpt lat="44.45314" lon="2.43715">
        <ele>507</ele>
        <time>2008-10-07T09:38:48Z</time>
      </trkpt>
      <trkpt lat="44.45323" lon="2.43708">
        <ele>507</ele>
        <time>2008-10-07T09:38:57Z</time>
      </trkpt>
      <trkpt lat="44.45331" lon="2.43703">
        <ele>507</ele>
        <time>2008-10-07T09:39:05Z</time>
      </trkpt>
      <trkpt lat="44.45339" lon="2.43698">
        <ele>507</ele>
        <time>2008-10-07T09:39:13Z</time>
      </trkpt>
      <trkpt lat="44.45347" lon="2.43691">
        <ele>507</ele>
        <time>2008-10-07T09:39:21Z</time>
      </trkpt>
      <trkpt lat="44.45355" lon="2.43684">
        <ele>507</ele>
        <time>2008-10-07T09:39:29Z</time>
      </trkpt>
      <trkpt lat="44.45362" lon="2.43675">
        <ele>507</ele>
        <time>2008-10-07T09:39:38Z</time>
      </trkpt>
      <trkpt lat="44.4537" lon="2.43665">
        <ele>507</ele>
        <time>2008-10-07T09:39:47Z</time>
      </trkpt>
      <trkpt lat="44.45377" lon="2.43656">
        <ele>507</ele>
        <time>2008-10-07T09:39:56Z</time>
      </trkpt>
      <trkpt lat="44.45383" lon="2.43647">
        <ele>507</ele>
        <time>2008-10-07T09:40:26Z</time>
      </trkpt>
      <trkpt lat="44.4539" lon="2.43637">
        <ele>507</ele>
        <time>2008-10-07T09:40:37Z</time>
      </trkpt>
      <trkpt lat="44.45395" lon="2.43627">
        <ele>507</ele>
        <time>2008-10-07T09:40:47Z</time>
      </trkpt>
      <trkpt lat="44.45401" lon="2.43617">
        <ele>507</ele>
        <time>2008-10-07T09:40:57Z</time>
      </trkpt>
      <trkpt lat="44.45408" lon="2.43606">
        <ele>507</ele>
        <time>2008-10-07T09:41:07Z</time>
      </trkpt>
      <trkpt lat="44.45415" lon="2.43597">
        <ele>507</ele>
        <time>2008-10-07T09:41:17Z</time>
      </trkpt>
      <trkpt lat="44.45422" lon="2.43589">
        <ele>507</ele>
        <time>2008-10-07T09:41:25Z</time>
      </trkpt>
      <trkpt lat="44.45429" lon="2.43581">
        <ele>507</ele>
        <time>2008-10-07T09:41:33Z</time>
      </trkpt>
      <trkpt lat="44.45435" lon="2.43572">
        <ele>507</ele>
        <time>2008-10-07T09:41:41Z</time>
      </trkpt>
      <trkpt lat="44.45442" lon="2.43562">
        <ele>507</ele>
        <time>2008-10-07T09:41:50Z</time>
      </trkpt>
      <trkpt lat="44.45448" lon="2.43552">
        <ele>507</ele>
        <time>2008-10-07T09:41:59Z</time>
      </trkpt>
      <trkpt lat="44.45455" lon="2.43545">
        <ele>507</ele>
        <time>2008-10-07T09:42:09Z</time>
      </trkpt>
      <trkpt lat="44.45462" lon="2.43536">
        <ele>507</ele>
        <time>2008-10-07T09:42:19Z</time>
      </trkpt>
      <trkpt lat="44.45469" lon="2.43528">
        <ele>507</ele>
        <time>2008-10-07T09:42:29Z</time>
      </trkpt>
      <trkpt lat="44.45477" lon="2.43522">
        <ele>507</ele>
        <time>2008-10-07T09:42:36Z</time>
      </trkpt>
      <trkpt lat="44.45484" lon="2.43514">
        <ele>507</ele>
        <time>2008-10-07T09:42:45Z</time>
      </trkpt>
      <trkpt lat="44.45492" lon="2.43507">
        <ele>501</ele>
        <time>2008-10-07T09:42:53Z</time>
      </trkpt>
      <trkpt lat="44.455" lon="2.43501">
        <ele>501</ele>
        <time>2008-10-07T09:43:01Z</time>
      </trkpt>
      <trkpt lat="44.45508" lon="2.43495">
        <ele>501</ele>
        <time>2008-10-07T09:43:10Z</time>
      </trkpt>
      <trkpt lat="44.45517" lon="2.4349">
        <ele>501</ele>
        <time>2008-10-07T09:43:19Z</time>
      </trkpt>
      <trkpt lat="44.45525" lon="2.43487">
        <ele>501</ele>
        <time>2008-10-07T09:43:28Z</time>
      </trkpt>
      <trkpt lat="44.45534" lon="2.43485">
        <ele>501</ele>
        <time>2008-10-07T09:43:56Z</time>
      </trkpt>
      <trkpt lat="44.45543" lon="2.43481">
        <ele>501</ele>
        <time>2008-10-07T09:44:06Z</time>
      </trkpt>
      <trkpt lat="44.45552" lon="2.43479">
        <ele>501</ele>
        <time>2008-10-07T09:44:15Z</time>
      </trkpt>
      <trkpt lat="44.45561" lon="2.43477">
        <ele>501</ele>
        <time>2008-10-07T09:44:26Z</time>
      </trkpt>
      <trkpt lat="44.4557" lon="2.43476">
        <ele>495</ele>
        <time>2008-10-07T09:45:15Z</time>
      </trkpt>
      <trkpt lat="44.45579" lon="2.43474">
        <ele>495</ele>
        <time>2008-10-07T09:45:29Z</time>
      </trkpt>
      <trkpt lat="44.45588" lon="2.43473">
        <ele>495</ele>
        <time>2008-10-07T09:45:39Z</time>
      </trkpt>
      <trkpt lat="44.45597" lon="2.43473">
        <ele>495</ele>
        <time>2008-10-07T09:45:50Z</time>
      </trkpt>
      <trkpt lat="44.45607" lon="2.43472">
        <ele>495</ele>
        <time>2008-10-07T09:45:59Z</time>
      </trkpt>
      <trkpt lat="44.45616" lon="2.43472">
        <ele>495</ele>
        <time>2008-10-07T09:46:07Z</time>
      </trkpt>
      <trkpt lat="44.45626" lon="2.43472">
        <ele>495</ele>
        <time>2008-10-07T09:46:17Z</time>
      </trkpt>
      <trkpt lat="44.45635" lon="2.43473">
        <ele>495</ele>
        <time>2008-10-07T09:46:26Z</time>
      </trkpt>
      <trkpt lat="44.45644" lon="2.43475">
        <ele>495</ele>
        <time>2008-10-07T09:46:35Z</time>
      </trkpt>
      <trkpt lat="44.45653" lon="2.43475">
        <ele>490</ele>
        <time>2008-10-07T09:46:45Z</time>
      </trkpt>
      <trkpt lat="44.45662" lon="2.43476">
        <ele>490</ele>
        <time>2008-10-07T09:46:54Z</time>
      </trkpt>
      <trkpt lat="44.45671" lon="2.43478">
        <ele>490</ele>
        <time>2008-10-07T09:47:04Z</time>
      </trkpt>
      <trkpt lat="44.4568" lon="2.43479">
        <ele>490</ele>
        <time>2008-10-07T09:47:13Z</time>
      </trkpt>
      <trkpt lat="44.4569" lon="2.43483">
        <ele>484</ele>
        <time>2008-10-07T09:47:23Z</time>
      </trkpt>
      <trkpt lat="44.45699" lon="2.43487">
        <ele>484</ele>
        <time>2008-10-07T09:47:33Z</time>
      </trkpt>
      <trkpt lat="44.45708" lon="2.43487">
        <ele>484</ele>
        <time>2008-10-07T09:47:42Z</time>
      </trkpt>
      <trkpt lat="44.45717" lon="2.43484">
        <ele>484</ele>
        <time>2008-10-07T09:47:51Z</time>
      </trkpt>
      <trkpt lat="44.45726" lon="2.4348">
        <ele>484</ele>
        <time>2008-10-07T09:47:59Z</time>
      </trkpt>
      <trkpt lat="44.45735" lon="2.4348">
        <ele>484</ele>
        <time>2008-10-07T09:48:08Z</time>
      </trkpt>
      <trkpt lat="44.45744" lon="2.43483">
        <ele>478</ele>
        <time>2008-10-07T09:48:16Z</time>
      </trkpt>
      <trkpt lat="44.45752" lon="2.43488">
        <ele>478</ele>
        <time>2008-10-07T09:48:25Z</time>
      </trkpt>
      <trkpt lat="44.4576" lon="2.43494">
        <ele>478</ele>
        <time>2008-10-07T09:48:33Z</time>
      </trkpt>
      <trkpt lat="44.45769" lon="2.435">
        <ele>478</ele>
        <time>2008-10-07T09:48:42Z</time>
      </trkpt>
      <trkpt lat="44.45776" lon="2.43506">
        <ele>478</ele>
        <time>2008-10-07T09:48:50Z</time>
      </trkpt>
      <trkpt lat="44.45784" lon="2.43514">
        <ele>478</ele>
        <time>2008-10-07T09:48:59Z</time>
      </trkpt>
      <trkpt lat="44.45792" lon="2.4352">
        <ele>478</ele>
        <time>2008-10-07T09:49:07Z</time>
      </trkpt>
      <trkpt lat="44.458" lon="2.43527">
        <ele>478</ele>
        <time>2008-10-07T09:49:15Z</time>
      </trkpt>
      <trkpt lat="44.45807" lon="2.43534">
        <ele>478</ele>
        <time>2008-10-07T09:49:23Z</time>
      </trkpt>
      <trkpt lat="44.45813" lon="2.43543">
        <ele>478</ele>
        <time>2008-10-07T09:49:32Z</time>
      </trkpt>
      <trkpt lat="44.45822" lon="2.43548">
        <ele>478</ele>
        <time>2008-10-07T09:49:42Z</time>
      </trkpt>
      <trkpt lat="44.45825" lon="2.43536">
        <ele>478</ele>
        <time>2008-10-07T09:50:03Z</time>
      </trkpt>
      <trkpt lat="44.45822" lon="2.43524">
        <ele>470</ele>
        <time>2008-10-07T09:50:29Z</time>
      </trkpt>
      <trkpt lat="44.45818" lon="2.43514">
        <ele>470</ele>
        <time>2008-10-07T09:50:43Z</time>
      </trkpt>
      <trkpt lat="44.45814" lon="2.43501">
        <ele>464</ele>
        <time>2008-10-07T09:50:55Z</time>
      </trkpt>
      <trkpt lat="44.45812" lon="2.43488">
        <ele>464</ele>
        <time>2008-10-07T09:51:06Z</time>
      </trkpt>
      <trkpt lat="44.45809" lon="2.43477">
        <ele>464</ele>
        <time>2008-10-07T09:51:17Z</time>
      </trkpt>
      <trkpt lat="44.45805" lon="2.43465">
        <ele>459</ele>
        <time>2008-10-07T09:51:34Z</time>
      </trkpt>
      <trkpt lat="44.45804" lon="2.43452">
        <ele>459</ele>
        <time>2008-10-07T09:51:58Z</time>
      </trkpt>
      <trkpt lat="44.458" lon="2.43441">
        <ele>459</ele>
        <time>2008-10-07T09:52:26Z</time>
      </trkpt>
      <trkpt lat="44.45794" lon="2.43432">
        <ele>451</ele>
        <time>2008-10-07T09:52:46Z</time>
      </trkpt>
      <trkpt lat="44.45792" lon="2.43419">
        <ele>451</ele>
        <time>2008-10-07T09:53:09Z</time>
      </trkpt>
      <trkpt lat="44.45786" lon="2.43409">
        <ele>451</ele>
        <time>2008-10-07T09:53:52Z</time>
      </trkpt>
      <trkpt lat="44.45784" lon="2.43397">
        <ele>451</ele>
        <time>2008-10-07T09:54:10Z</time>
      </trkpt>
      <trkpt lat="44.45781" lon="2.43385">
        <ele>446</ele>
        <time>2008-10-07T09:54:24Z</time>
      </trkpt>
      <trkpt lat="44.45788" lon="2.43378">
        <ele>446</ele>
        <time>2008-10-07T09:54:36Z</time>
      </trkpt>
      <trkpt lat="44.45797" lon="2.43377">
        <ele>446</ele>
        <time>2008-10-07T09:54:47Z</time>
      </trkpt>
      <trkpt lat="44.45806" lon="2.43378">
        <ele>446</ele>
        <time>2008-10-07T09:54:59Z</time>
      </trkpt>
      <trkpt lat="44.45816" lon="2.43374">
        <ele>440</ele>
        <time>2008-10-07T09:55:12Z</time>
      </trkpt>
      <trkpt lat="44.45825" lon="2.43373">
        <ele>440</ele>
        <time>2008-10-07T09:55:19Z</time>
      </trkpt>
      <trkpt lat="44.45834" lon="2.43373">
        <ele>440</ele>
        <time>2008-10-07T09:55:27Z</time>
      </trkpt>
      <trkpt lat="44.45843" lon="2.43375">
        <ele>440</ele>
        <time>2008-10-07T09:55:36Z</time>
      </trkpt>
      <trkpt lat="44.45852" lon="2.43378">
        <ele>440</ele>
        <time>2008-10-07T09:55:43Z</time>
      </trkpt>
      <trkpt lat="44.45861" lon="2.43379">
        <ele>440</ele>
        <time>2008-10-07T09:55:50Z</time>
      </trkpt>
      <trkpt lat="44.45871" lon="2.43376">
        <ele>440</ele>
        <time>2008-10-07T09:55:58Z</time>
      </trkpt>
      <trkpt lat="44.4588" lon="2.43378">
        <ele>440</ele>
        <time>2008-10-07T09:56:06Z</time>
      </trkpt>
      <trkpt lat="44.4589" lon="2.43378">
        <ele>440</ele>
        <time>2008-10-07T09:56:14Z</time>
      </trkpt>
      <trkpt lat="44.45899" lon="2.43379">
        <ele>440</ele>
        <time>2008-10-07T09:56:23Z</time>
      </trkpt>
      <trkpt lat="44.45908" lon="2.43384">
        <ele>440</ele>
        <time>2008-10-07T09:56:33Z</time>
      </trkpt>
      <trkpt lat="44.45916" lon="2.43389">
        <ele>440</ele>
        <time>2008-10-07T09:56:42Z</time>
      </trkpt>
      <trkpt lat="44.45924" lon="2.43395">
        <ele>432</ele>
        <time>2008-10-07T09:56:50Z</time>
      </trkpt>
      <trkpt lat="44.45933" lon="2.43399">
        <ele>432</ele>
        <time>2008-10-07T09:56:58Z</time>
      </trkpt>
      <trkpt lat="44.45942" lon="2.43403">
        <ele>424</ele>
        <time>2008-10-07T09:57:06Z</time>
      </trkpt>
      <trkpt lat="44.45951" lon="2.43401">
        <ele>424</ele>
        <time>2008-10-07T09:57:15Z</time>
      </trkpt>
      <trkpt lat="44.45961" lon="2.43399">
        <ele>424</ele>
        <time>2008-10-07T09:57:24Z</time>
      </trkpt>
      <trkpt lat="44.4597" lon="2.43398">
        <ele>424</ele>
        <time>2008-10-07T09:57:33Z</time>
      </trkpt>
      <trkpt lat="44.45979" lon="2.43399">
        <ele>413</ele>
        <time>2008-10-07T09:57:42Z</time>
      </trkpt>
      <trkpt lat="44.45988" lon="2.43399">
        <ele>413</ele>
        <time>2008-10-07T09:57:52Z</time>
      </trkpt>
      <trkpt lat="44.45996" lon="2.43396">
        <ele>407</ele>
        <time>2008-10-07T09:58:02Z</time>
      </trkpt>
      <trkpt lat="44.46006" lon="2.43395">
        <ele>407</ele>
        <time>2008-10-07T09:58:13Z</time>
      </trkpt>
      <trkpt lat="44.46015" lon="2.43393">
        <ele>401</ele>
        <time>2008-10-07T09:58:25Z</time>
      </trkpt>
      <trkpt lat="44.46024" lon="2.43391">
        <ele>401</ele>
        <time>2008-10-07T09:58:35Z</time>
      </trkpt>
      <trkpt lat="44.46032" lon="2.43388">
        <ele>401</ele>
        <time>2008-10-07T09:58:44Z</time>
      </trkpt>
      <trkpt lat="44.46041" lon="2.43385">
        <ele>401</ele>
        <time>2008-10-07T09:58:56Z</time>
      </trkpt>
      <trkpt lat="44.46039" lon="2.43373">
        <ele>390</ele>
        <time>2008-10-07T09:59:16Z</time>
      </trkpt>
      <trkpt lat="44.46031" lon="2.43367">
        <ele>390</ele>
        <time>2008-10-07T09:59:24Z</time>
      </trkpt>
      <trkpt lat="44.46027" lon="2.43356">
        <ele>390</ele>
        <time>2008-10-07T09:59:31Z</time>
      </trkpt>
      <trkpt lat="44.4602" lon="2.43347">
        <ele>390</ele>
        <time>2008-10-07T09:59:38Z</time>
      </trkpt>
      <trkpt lat="44.46014" lon="2.43338">
        <ele>390</ele>
        <time>2008-10-07T09:59:45Z</time>
      </trkpt>
      <trkpt lat="44.46007" lon="2.43329">
        <ele>390</ele>
        <time>2008-10-07T09:59:53Z</time>
      </trkpt>
      <trkpt lat="44.46" lon="2.4332">
        <ele>384</ele>
        <time>2008-10-07T10:00:01Z</time>
      </trkpt>
      <trkpt lat="44.45994" lon="2.43311">
        <ele>384</ele>
        <time>2008-10-07T10:00:09Z</time>
      </trkpt>
      <trkpt lat="44.45987" lon="2.433">
        <ele>384</ele>
        <time>2008-10-07T10:00:18Z</time>
      </trkpt>
      <trkpt lat="44.45982" lon="2.43289">
        <ele>384</ele>
        <time>2008-10-07T10:00:28Z</time>
      </trkpt>
      <trkpt lat="44.45975" lon="2.43279">
        <ele>389</ele>
        <time>2008-10-07T10:00:38Z</time>
      </trkpt>
      <trkpt lat="44.45967" lon="2.43272">
        <ele>389</ele>
        <time>2008-10-07T10:00:45Z</time>
      </trkpt>
      <trkpt lat="44.4596" lon="2.43265">
        <ele>389</ele>
        <time>2008-10-07T10:00:53Z</time>
      </trkpt>
      <trkpt lat="44.45951" lon="2.43261">
        <ele>383</ele>
        <time>2008-10-07T10:01:01Z</time>
      </trkpt>
      <trkpt lat="44.45943" lon="2.43257">
        <ele>383</ele>
        <time>2008-10-07T10:01:08Z</time>
      </trkpt>
      <trkpt lat="44.45934" lon="2.43252">
        <ele>383</ele>
        <time>2008-10-07T10:01:16Z</time>
      </trkpt>
      <trkpt lat="44.45927" lon="2.43245">
        <ele>383</ele>
        <time>2008-10-07T10:01:24Z</time>
      </trkpt>
      <trkpt lat="44.45919" lon="2.43236">
        <ele>383</ele>
        <time>2008-10-07T10:01:34Z</time>
      </trkpt>
      <trkpt lat="44.4591" lon="2.43232">
        <ele>376</ele>
        <time>2008-10-07T10:01:41Z</time>
      </trkpt>
      <trkpt lat="44.45903" lon="2.43225">
        <ele>376</ele>
        <time>2008-10-07T10:01:50Z</time>
      </trkpt>
      <trkpt lat="44.45896" lon="2.43218">
        <ele>376</ele>
        <time>2008-10-07T10:01:58Z</time>
      </trkpt>
      <trkpt lat="44.45889" lon="2.4321">
        <ele>381</ele>
        <time>2008-10-07T10:02:06Z</time>
      </trkpt>
      <trkpt lat="44.45881" lon="2.43204">
        <ele>381</ele>
        <time>2008-10-07T10:02:13Z</time>
      </trkpt>
      <trkpt lat="44.45874" lon="2.43196">
        <ele>381</ele>
        <time>2008-10-07T10:02:20Z</time>
      </trkpt>
      <trkpt lat="44.45867" lon="2.43189">
        <ele>381</ele>
        <time>2008-10-07T10:02:26Z</time>
      </trkpt>
      <trkpt lat="44.45861" lon="2.43179">
        <ele>376</ele>
        <time>2008-10-07T10:02:34Z</time>
      </trkpt>
      <trkpt lat="44.45854" lon="2.43171">
        <ele>376</ele>
        <time>2008-10-07T10:02:41Z</time>
      </trkpt>
      <trkpt lat="44.45845" lon="2.43165">
        <ele>376</ele>
        <time>2008-10-07T10:02:49Z</time>
      </trkpt>
      <trkpt lat="44.45836" lon="2.43161">
        <ele>376</ele>
        <time>2008-10-07T10:02:57Z</time>
      </trkpt>
      <trkpt lat="44.45828" lon="2.43157">
        <ele>376</ele>
        <time>2008-10-07T10:03:04Z</time>
      </trkpt>
      <trkpt lat="44.45818" lon="2.43153">
        <ele>370</ele>
        <time>2008-10-07T10:03:12Z</time>
      </trkpt>
      <trkpt lat="44.45809" lon="2.43149">
        <ele>370</ele>
        <time>2008-10-07T10:03:21Z</time>
      </trkpt>
      <trkpt lat="44.458" lon="2.43145">
        <ele>370</ele>
        <time>2008-10-07T10:03:29Z</time>
      </trkpt>
      <trkpt lat="44.45791" lon="2.4314">
        <ele>370</ele>
        <time>2008-10-07T10:03:37Z</time>
      </trkpt>
      <trkpt lat="44.4578" lon="2.43137">
        <ele>370</ele>
        <time>2008-10-07T10:03:46Z</time>
      </trkpt>
      <trkpt lat="44.45771" lon="2.43132">
        <ele>370</ele>
        <time>2008-10-07T10:03:55Z</time>
      </trkpt>
      <trkpt lat="44.45765" lon="2.43122">
        <ele>370</ele>
        <time>2008-10-07T10:04:02Z</time>
      </trkpt>
      <trkpt lat="44.45768" lon="2.4311">
        <ele>370</ele>
        <time>2008-10-07T10:04:10Z</time>
      </trkpt>
      <trkpt lat="44.45777" lon="2.43105">
        <ele>370</ele>
        <time>2008-10-07T10:04:18Z</time>
      </trkpt>
      <trkpt lat="44.45785" lon="2.431">
        <ele>370</ele>
        <time>2008-10-07T10:04:26Z</time>
      </trkpt>
      <trkpt lat="44.45795" lon="2.43099">
        <ele>370</ele>
        <time>2008-10-07T10:04:35Z</time>
      </trkpt>
      <trkpt lat="44.45804" lon="2.43102">
        <ele>370</ele>
        <time>2008-10-07T10:05:20Z</time>
      </trkpt>
      <trkpt lat="44.45813" lon="2.431">
        <ele>370</ele>
        <time>2008-10-07T10:05:26Z</time>
      </trkpt>
      <trkpt lat="44.45822" lon="2.43103">
        <ele>370</ele>
        <time>2008-10-07T10:05:34Z</time>
      </trkpt>
      <trkpt lat="44.45831" lon="2.43105">
        <ele>370</ele>
        <time>2008-10-07T10:05:42Z</time>
      </trkpt>
      <trkpt lat="44.45826" lon="2.43095">
        <ele>364</ele>
        <time>2008-10-07T10:05:58Z</time>
      </trkpt>
      <trkpt lat="44.45817" lon="2.43095">
        <ele>356</ele>
        <time>2008-10-07T10:06:09Z</time>
      </trkpt>
      <trkpt lat="44.45808" lon="2.43096">
        <ele>356</ele>
        <time>2008-10-07T10:06:17Z</time>
      </trkpt>
      <trkpt lat="44.45799" lon="2.43095">
        <ele>349</ele>
        <time>2008-10-07T10:06:26Z</time>
      </trkpt>
      <trkpt lat="44.45791" lon="2.43088">
        <ele>349</ele>
        <time>2008-10-07T10:06:34Z</time>
      </trkpt>
      <trkpt lat="44.45784" lon="2.43078">
        <ele>349</ele>
        <time>2008-10-07T10:06:41Z</time>
      </trkpt>
      <trkpt lat="44.45778" lon="2.43067">
        <ele>358</ele>
        <time>2008-10-07T10:06:50Z</time>
      </trkpt>
      <trkpt lat="44.45769" lon="2.43061">
        <ele>358</ele>
        <time>2008-10-07T10:06:56Z</time>
      </trkpt>
      <trkpt lat="44.45763" lon="2.43051">
        <ele>358</ele>
        <time>2008-10-07T10:07:03Z</time>
      </trkpt>
      <trkpt lat="44.45759" lon="2.4304">
        <ele>358</ele>
        <time>2008-10-07T10:07:10Z</time>
      </trkpt>
      <trkpt lat="44.45756" lon="2.43028">
        <ele>358</ele>
        <time>2008-10-07T10:07:18Z</time>
      </trkpt>
      <trkpt lat="44.45753" lon="2.43017">
        <ele>358</ele>
        <time>2008-10-07T10:07:32Z</time>
      </trkpt>
      <trkpt lat="44.45747" lon="2.43007">
        <ele>358</ele>
        <time>2008-10-07T10:07:39Z</time>
      </trkpt>
      <trkpt lat="44.4574" lon="2.42998">
        <ele>352</ele>
        <time>2008-10-07T10:07:48Z</time>
      </trkpt>
      <trkpt lat="44.45731" lon="2.42992">
        <ele>352</ele>
        <time>2008-10-07T10:07:55Z</time>
      </trkpt>
      <trkpt lat="44.45722" lon="2.42986">
        <ele>346</ele>
        <time>2008-10-07T10:08:03Z</time>
      </trkpt>
      <trkpt lat="44.45715" lon="2.42977">
        <ele>346</ele>
        <time>2008-10-07T10:08:11Z</time>
      </trkpt>
      <trkpt lat="44.45709" lon="2.42967">
        <ele>346</ele>
        <time>2008-10-07T10:08:19Z</time>
      </trkpt>
      <trkpt lat="44.45704" lon="2.42958">
        <ele>346</ele>
        <time>2008-10-07T10:08:26Z</time>
      </trkpt>
      <trkpt lat="44.45697" lon="2.42948">
        <ele>346</ele>
        <time>2008-10-07T10:08:34Z</time>
      </trkpt>
      <trkpt lat="44.45691" lon="2.42936">
        <ele>346</ele>
        <time>2008-10-07T10:08:42Z</time>
      </trkpt>
      <trkpt lat="44.45686" lon="2.42923">
        <ele>346</ele>
        <time>2008-10-07T10:08:51Z</time>
      </trkpt>
      <trkpt lat="44.45681" lon="2.42912">
        <ele>346</ele>
        <time>2008-10-07T10:08:59Z</time>
      </trkpt>
      <trkpt lat="44.45678" lon="2.42899">
        <ele>346</ele>
        <time>2008-10-07T10:09:07Z</time>
      </trkpt>
      <trkpt lat="44.45674" lon="2.42887">
        <ele>346</ele>
        <time>2008-10-07T10:09:15Z</time>
      </trkpt>
      <trkpt lat="44.45666" lon="2.42878">
        <ele>346</ele>
        <time>2008-10-07T10:09:22Z</time>
      </trkpt>
      <trkpt lat="44.45659" lon="2.42869">
        <ele>339</ele>
        <time>2008-10-07T10:09:31Z</time>
      </trkpt>
      <trkpt lat="44.45654" lon="2.4286">
        <ele>339</ele>
        <time>2008-10-07T10:09:38Z</time>
      </trkpt>
      <trkpt lat="44.4565" lon="2.42847">
        <ele>339</ele>
        <time>2008-10-07T10:09:46Z</time>
      </trkpt>
      <trkpt lat="44.45655" lon="2.42837">
        <ele>339</ele>
        <time>2008-10-07T10:09:54Z</time>
      </trkpt>
      <trkpt lat="44.45663" lon="2.42831">
        <ele>339</ele>
        <time>2008-10-07T10:10:01Z</time>
      </trkpt>
      <trkpt lat="44.45671" lon="2.42824">
        <ele>339</ele>
        <time>2008-10-07T10:10:09Z</time>
      </trkpt>
      <trkpt lat="44.45678" lon="2.42816">
        <ele>339</ele>
        <time>2008-10-07T10:10:16Z</time>
      </trkpt>
      <trkpt lat="44.45682" lon="2.42805">
        <ele>339</ele>
        <time>2008-10-07T10:10:24Z</time>
      </trkpt>
      <trkpt lat="44.45686" lon="2.42793">
        <ele>339</ele>
        <time>2008-10-07T10:10:46Z</time>
      </trkpt>
      <trkpt lat="44.45691" lon="2.42783">
        <ele>333</ele>
        <time>2008-10-07T10:10:55Z</time>
      </trkpt>
      <trkpt lat="44.45696" lon="2.42772">
        <ele>333</ele>
        <time>2008-10-07T10:11:03Z</time>
      </trkpt>
      <trkpt lat="44.457" lon="2.42761">
        <ele>333</ele>
        <time>2008-10-07T10:11:16Z</time>
      </trkpt>
      <trkpt lat="44.457" lon="2.42746">
        <ele>333</ele>
        <time>2008-10-07T10:11:24Z</time>
      </trkpt>
      <trkpt lat="44.45705" lon="2.42735">
        <ele>333</ele>
        <time>2008-10-07T10:11:32Z</time>
      </trkpt>
      <trkpt lat="44.45702" lon="2.42723">
        <ele>340</ele>
        <time>2008-10-07T10:11:39Z</time>
      </trkpt>
      <trkpt lat="44.45708" lon="2.42711">
        <ele>340</ele>
        <time>2008-10-07T10:11:48Z</time>
      </trkpt>
      <trkpt lat="44.45712" lon="2.427">
        <ele>334</ele>
        <time>2008-10-07T10:11:57Z</time>
      </trkpt>
      <trkpt lat="44.45715" lon="2.42688">
        <ele>334</ele>
        <time>2008-10-07T10:12:05Z</time>
      </trkpt>
      <trkpt lat="44.45718" lon="2.42676">
        <ele>334</ele>
        <time>2008-10-07T10:12:12Z</time>
      </trkpt>
      <trkpt lat="44.45719" lon="2.42663">
        <ele>326</ele>
        <time>2008-10-07T10:12:22Z</time>
      </trkpt>
      <trkpt lat="44.45725" lon="2.42652">
        <ele>326</ele>
        <time>2008-10-07T10:12:29Z</time>
      </trkpt>
      <trkpt lat="44.45729" lon="2.4264">
        <ele>326</ele>
        <time>2008-10-07T10:12:38Z</time>
      </trkpt>
      <trkpt lat="44.45733" lon="2.42629">
        <ele>326</ele>
        <time>2008-10-07T10:12:45Z</time>
      </trkpt>
      <trkpt lat="44.45738" lon="2.42617">
        <ele>326</ele>
        <time>2008-10-07T10:12:55Z</time>
      </trkpt>
      <trkpt lat="44.45745" lon="2.4261">
        <ele>326</ele>
        <time>2008-10-07T10:13:02Z</time>
      </trkpt>
      <trkpt lat="44.45753" lon="2.42602">
        <ele>326</ele>
        <time>2008-10-07T10:13:18Z</time>
      </trkpt>
      <trkpt lat="44.4576" lon="2.42594">
        <ele>326</ele>
        <time>2008-10-07T10:13:25Z</time>
      </trkpt>
      <trkpt lat="44.45768" lon="2.42586">
        <ele>320</ele>
        <time>2008-10-07T10:13:33Z</time>
      </trkpt>
      <trkpt lat="44.45775" lon="2.42578">
        <ele>320</ele>
        <time>2008-10-07T10:13:40Z</time>
      </trkpt>
      <trkpt lat="44.45781" lon="2.42568">
        <ele>320</ele>
        <time>2008-10-07T10:13:48Z</time>
      </trkpt>
      <trkpt lat="44.45787" lon="2.42559">
        <ele>320</ele>
        <time>2008-10-07T10:13:55Z</time>
      </trkpt>
      <trkpt lat="44.45795" lon="2.42551">
        <ele>320</ele>
        <time>2008-10-07T10:14:04Z</time>
      </trkpt>
      <trkpt lat="44.45803" lon="2.42548">
        <ele>313</ele>
        <time>2008-10-07T10:14:21Z</time>
      </trkpt>
      <trkpt lat="44.45812" lon="2.42542">
        <ele>313</ele>
        <time>2008-10-07T10:14:28Z</time>
      </trkpt>
      <trkpt lat="44.45821" lon="2.42536">
        <ele>313</ele>
        <time>2008-10-07T10:14:37Z</time>
      </trkpt>
      <trkpt lat="44.45829" lon="2.42532">
        <ele>313</ele>
        <time>2008-10-07T10:14:45Z</time>
      </trkpt>
      <trkpt lat="44.45837" lon="2.42525">
        <ele>313</ele>
        <time>2008-10-07T10:14:53Z</time>
      </trkpt>
      <trkpt lat="44.45845" lon="2.42516">
        <ele>313</ele>
        <time>2008-10-07T10:15:02Z</time>
      </trkpt>
      <trkpt lat="44.45852" lon="2.42508">
        <ele>313</ele>
        <time>2008-10-07T10:15:09Z</time>
      </trkpt>
      <trkpt lat="44.4586" lon="2.42501">
        <ele>313</ele>
        <time>2008-10-07T10:15:16Z</time>
      </trkpt>
      <trkpt lat="44.45867" lon="2.42493">
        <ele>313</ele>
        <time>2008-10-07T10:15:23Z</time>
      </trkpt>
      <trkpt lat="44.45875" lon="2.42487">
        <ele>313</ele>
        <time>2008-10-07T10:15:30Z</time>
      </trkpt>
      <trkpt lat="44.45883" lon="2.4248">
        <ele>313</ele>
        <time>2008-10-07T10:15:38Z</time>
      </trkpt>
      <trkpt lat="44.45891" lon="2.42473">
        <ele>313</ele>
        <time>2008-10-07T10:15:46Z</time>
      </trkpt>
      <trkpt lat="44.459" lon="2.42468">
        <ele>318</ele>
        <time>2008-10-07T10:15:54Z</time>
      </trkpt>
      <trkpt lat="44.45908" lon="2.42464">
        <ele>318</ele>
        <time>2008-10-07T10:16:03Z</time>
      </trkpt>
      <trkpt lat="44.45917" lon="2.42458">
        <ele>318</ele>
        <time>2008-10-07T10:16:11Z</time>
      </trkpt>
      <trkpt lat="44.45925" lon="2.42451">
        <ele>318</ele>
        <time>2008-10-07T10:16:19Z</time>
      </trkpt>
      <trkpt lat="44.45935" lon="2.42445">
        <ele>312</ele>
        <time>2008-10-07T10:16:26Z</time>
      </trkpt>
      <trkpt lat="44.45943" lon="2.42437">
        <ele>312</ele>
        <time>2008-10-07T10:16:34Z</time>
      </trkpt>
      <trkpt lat="44.45951" lon="2.42431">
        <ele>312</ele>
        <time>2008-10-07T10:16:42Z</time>
      </trkpt>
      <trkpt lat="44.4596" lon="2.42425">
        <ele>312</ele>
        <time>2008-10-07T10:16:51Z</time>
      </trkpt>
      <trkpt lat="44.45967" lon="2.42418">
        <ele>306</ele>
        <time>2008-10-07T10:16:58Z</time>
      </trkpt>
      <trkpt lat="44.45976" lon="2.4241">
        <ele>306</ele>
        <time>2008-10-07T10:17:06Z</time>
      </trkpt>
      <trkpt lat="44.45984" lon="2.42401">
        <ele>306</ele>
        <time>2008-10-07T10:17:14Z</time>
      </trkpt>
      <trkpt lat="44.45989" lon="2.42392">
        <ele>306</ele>
        <time>2008-10-07T10:17:22Z</time>
      </trkpt>
      <trkpt lat="44.45994" lon="2.42381">
        <ele>306</ele>
        <time>2008-10-07T10:17:29Z</time>
      </trkpt>
      <trkpt lat="44.46" lon="2.42371">
        <ele>306</ele>
        <time>2008-10-07T10:17:36Z</time>
      </trkpt>
      <trkpt lat="44.46006" lon="2.42361">
        <ele>306</ele>
        <time>2008-10-07T10:17:44Z</time>
      </trkpt>
      <trkpt lat="44.46012" lon="2.4235">
        <ele>306</ele>
        <time>2008-10-07T10:17:52Z</time>
      </trkpt>
      <trkpt lat="44.4602" lon="2.42341">
        <ele>306</ele>
        <time>2008-10-07T10:18:00Z</time>
      </trkpt>
      <trkpt lat="44.46027" lon="2.42335">
        <ele>306</ele>
        <time>2008-10-07T10:18:07Z</time>
      </trkpt>
      <trkpt lat="44.46037" lon="2.42332">
        <ele>306</ele>
        <time>2008-10-07T10:18:16Z</time>
      </trkpt>
      <trkpt lat="44.46046" lon="2.42332">
        <ele>306</ele>
        <time>2008-10-07T10:18:26Z</time>
      </trkpt>
      <trkpt lat="44.46054" lon="2.42327">
        <ele>306</ele>
        <time>2008-10-07T10:18:44Z</time>
      </trkpt>
      <trkpt lat="44.46059" lon="2.42317">
        <ele>306</ele>
        <time>2008-10-07T10:19:37Z</time>
      </trkpt>
      <trkpt lat="44.46067" lon="2.4231">
        <ele>306</ele>
        <time>2008-10-07T10:20:19Z</time>
      </trkpt>
      <trkpt lat="44.4607" lon="2.42298">
        <ele>306</ele>
        <time>2008-10-07T10:20:29Z</time>
      </trkpt>
      <trkpt lat="44.46077" lon="2.42288">
        <ele>306</ele>
        <time>2008-10-07T10:20:37Z</time>
      </trkpt>
      <trkpt lat="44.46083" lon="2.42279">
        <ele>306</ele>
        <time>2008-10-07T10:20:46Z</time>
      </trkpt>
      <trkpt lat="44.4609" lon="2.42272">
        <ele>298</ele>
        <time>2008-10-07T10:20:59Z</time>
      </trkpt>
      <trkpt lat="44.46097" lon="2.42264">
        <ele>298</ele>
        <time>2008-10-07T10:21:08Z</time>
      </trkpt>
      <trkpt lat="44.46105" lon="2.42258">
        <ele>298</ele>
        <time>2008-10-07T10:21:16Z</time>
      </trkpt>
      <trkpt lat="44.46112" lon="2.42248">
        <ele>298</ele>
        <time>2008-10-07T10:21:25Z</time>
      </trkpt>
      <trkpt lat="44.46119" lon="2.42239">
        <ele>298</ele>
        <time>2008-10-07T10:21:32Z</time>
      </trkpt>
      <trkpt lat="44.46125" lon="2.4223">
        <ele>298</ele>
        <time>2008-10-07T10:21:40Z</time>
      </trkpt>
      <trkpt lat="44.46132" lon="2.42221">
        <ele>298</ele>
        <time>2008-10-07T10:21:49Z</time>
      </trkpt>
      <trkpt lat="44.46139" lon="2.42213">
        <ele>298</ele>
        <time>2008-10-07T10:21:58Z</time>
      </trkpt>
      <trkpt lat="44.46146" lon="2.42204">
        <ele>298</ele>
        <time>2008-10-07T10:22:07Z</time>
      </trkpt>
      <trkpt lat="44.46153" lon="2.42194">
        <ele>298</ele>
        <time>2008-10-07T10:22:16Z</time>
      </trkpt>
      <trkpt lat="44.46159" lon="2.42185">
        <ele>298</ele>
        <time>2008-10-07T10:22:24Z</time>
      </trkpt>
      <trkpt lat="44.46165" lon="2.42174">
        <ele>298</ele>
        <time>2008-10-07T10:22:32Z</time>
      </trkpt>
      <trkpt lat="44.4617" lon="2.42163">
        <ele>298</ele>
        <time>2008-10-07T10:22:41Z</time>
      </trkpt>
      <trkpt lat="44.46177" lon="2.42153">
        <ele>298</ele>
        <time>2008-10-07T10:22:49Z</time>
      </trkpt>
      <trkpt lat="44.46184" lon="2.42145">
        <ele>298</ele>
        <time>2008-10-07T10:22:57Z</time>
      </trkpt>
      <trkpt lat="44.46193" lon="2.42138">
        <ele>304</ele>
        <time>2008-10-07T10:23:05Z</time>
      </trkpt>
      <trkpt lat="44.462" lon="2.4213">
        <ele>304</ele>
        <time>2008-10-07T10:23:13Z</time>
      </trkpt>
      <trkpt lat="44.46209" lon="2.42123">
        <ele>304</ele>
        <time>2008-10-07T10:23:21Z</time>
      </trkpt>
      <trkpt lat="44.46218" lon="2.42122">
        <ele>304</ele>
        <time>2008-10-07T10:23:29Z</time>
      </trkpt>
      <trkpt lat="44.46227" lon="2.42127">
        <ele>304</ele>
        <time>2008-10-07T10:23:38Z</time>
      </trkpt>
      <trkpt lat="44.46235" lon="2.42131">
        <ele>304</ele>
        <time>2008-10-07T10:23:47Z</time>
      </trkpt>
      <trkpt lat="44.46244" lon="2.42136">
        <ele>304</ele>
        <time>2008-10-07T10:23:55Z</time>
      </trkpt>
      <trkpt lat="44.46253" lon="2.42139">
        <ele>304</ele>
        <time>2008-10-07T10:24:03Z</time>
      </trkpt>
      <trkpt lat="44.46262" lon="2.42141">
        <ele>304</ele>
        <time>2008-10-07T10:24:11Z</time>
      </trkpt>
      <trkpt lat="44.46271" lon="2.42142">
        <ele>304</ele>
        <time>2008-10-07T10:24:19Z</time>
      </trkpt>
      <trkpt lat="44.46279" lon="2.42145">
        <ele>304</ele>
        <time>2008-10-07T10:24:27Z</time>
      </trkpt>
      <trkpt lat="44.46288" lon="2.42149">
        <ele>304</ele>
        <time>2008-10-07T10:24:36Z</time>
      </trkpt>
      <trkpt lat="44.46296" lon="2.42154">
        <ele>304</ele>
        <time>2008-10-07T10:24:45Z</time>
      </trkpt>
      <trkpt lat="44.46305" lon="2.42159">
        <ele>310</ele>
        <time>2008-10-07T10:24:55Z</time>
      </trkpt>
      <trkpt lat="44.46313" lon="2.42164">
        <ele>310</ele>
        <time>2008-10-07T10:25:04Z</time>
      </trkpt>
      <trkpt lat="44.46321" lon="2.42169">
        <ele>310</ele>
        <time>2008-10-07T10:25:13Z</time>
      </trkpt>
      <trkpt lat="44.4633" lon="2.42174">
        <ele>310</ele>
        <time>2008-10-07T10:25:22Z</time>
      </trkpt>
      <trkpt lat="44.46339" lon="2.42179">
        <ele>310</ele>
        <time>2008-10-07T10:25:30Z</time>
      </trkpt>
      <trkpt lat="44.46348" lon="2.42185">
        <ele>310</ele>
        <time>2008-10-07T10:25:38Z</time>
      </trkpt>
      <trkpt lat="44.46357" lon="2.42191">
        <ele>310</ele>
        <time>2008-10-07T10:25:48Z</time>
      </trkpt>
      <trkpt lat="44.46365" lon="2.42197">
        <ele>310</ele>
        <time>2008-10-07T10:25:58Z</time>
      </trkpt>
      <trkpt lat="44.46375" lon="2.42198">
        <ele>310</ele>
        <time>2008-10-07T10:26:06Z</time>
      </trkpt>
      <trkpt lat="44.46384" lon="2.42199">
        <ele>310</ele>
        <time>2008-10-07T10:26:14Z</time>
      </trkpt>
      <trkpt lat="44.46393" lon="2.42201">
        <ele>310</ele>
        <time>2008-10-07T10:26:21Z</time>
      </trkpt>
      <trkpt lat="44.46403" lon="2.42202">
        <ele>310</ele>
        <time>2008-10-07T10:26:29Z</time>
      </trkpt>
      <trkpt lat="44.46412" lon="2.42205">
        <ele>310</ele>
        <time>2008-10-07T10:26:37Z</time>
      </trkpt>
      <trkpt lat="44.46422" lon="2.42208">
        <ele>310</ele>
        <time>2008-10-07T10:26:46Z</time>
      </trkpt>
      <trkpt lat="44.46431" lon="2.42206">
        <ele>310</ele>
        <time>2008-10-07T10:26:54Z</time>
      </trkpt>
      <trkpt lat="44.46439" lon="2.42199">
        <ele>310</ele>
        <time>2008-10-07T10:27:02Z</time>
      </trkpt>
      <trkpt lat="44.46447" lon="2.42191">
        <ele>310</ele>
        <time>2008-10-07T10:27:11Z</time>
      </trkpt>
      <trkpt lat="44.46454" lon="2.42183">
        <ele>310</ele>
        <time>2008-10-07T10:27:20Z</time>
      </trkpt>
      <trkpt lat="44.46462" lon="2.42176">
        <ele>310</ele>
        <time>2008-10-07T10:27:28Z</time>
      </trkpt>
      <trkpt lat="44.4647" lon="2.4217">
        <ele>310</ele>
        <time>2008-10-07T10:27:36Z</time>
      </trkpt>
      <trkpt lat="44.46479" lon="2.42164">
        <ele>310</ele>
        <time>2008-10-07T10:27:44Z</time>
      </trkpt>
      <trkpt lat="44.46487" lon="2.42158">
        <ele>310</ele>
        <time>2008-10-07T10:27:52Z</time>
      </trkpt>
      <trkpt lat="44.46495" lon="2.42153">
        <ele>310</ele>
        <time>2008-10-07T10:28:00Z</time>
      </trkpt>
      <trkpt lat="44.46503" lon="2.42146">
        <ele>310</ele>
        <time>2008-10-07T10:28:09Z</time>
      </trkpt>
      <trkpt lat="44.46511" lon="2.4214">
        <ele>315</ele>
        <time>2008-10-07T10:28:18Z</time>
      </trkpt>
      <trkpt lat="44.46519" lon="2.42134">
        <ele>315</ele>
        <time>2008-10-07T10:28:27Z</time>
      </trkpt>
      <trkpt lat="44.46527" lon="2.42127">
        <ele>315</ele>
        <time>2008-10-07T10:28:35Z</time>
      </trkpt>
      <trkpt lat="44.46536" lon="2.42121">
        <ele>315</ele>
        <time>2008-10-07T10:28:44Z</time>
      </trkpt>
      <trkpt lat="44.46544" lon="2.42115">
        <ele>315</ele>
        <time>2008-10-07T10:28:53Z</time>
      </trkpt>
      <trkpt lat="44.46552" lon="2.42109">
        <ele>315</ele>
        <time>2008-10-07T10:29:01Z</time>
      </trkpt>
      <trkpt lat="44.46561" lon="2.42103">
        <ele>315</ele>
        <time>2008-10-07T10:29:10Z</time>
      </trkpt>
      <trkpt lat="44.46568" lon="2.42096">
        <ele>315</ele>
        <time>2008-10-07T10:29:19Z</time>
      </trkpt>
      <trkpt lat="44.46577" lon="2.4209">
        <ele>315</ele>
        <time>2008-10-07T10:29:27Z</time>
      </trkpt>
      <trkpt lat="44.46585" lon="2.42083">
        <ele>315</ele>
        <time>2008-10-07T10:29:35Z</time>
      </trkpt>
      <trkpt lat="44.46593" lon="2.42077">
        <ele>321</ele>
        <time>2008-10-07T10:29:43Z</time>
      </trkpt>
      <trkpt lat="44.466" lon="2.42071">
        <ele>321</ele>
        <time>2008-10-07T10:29:51Z</time>
      </trkpt>
      <trkpt lat="44.46609" lon="2.42065">
        <ele>321</ele>
        <time>2008-10-07T10:29:59Z</time>
      </trkpt>
      <trkpt lat="44.46617" lon="2.42058">
        <ele>321</ele>
        <time>2008-10-07T10:30:07Z</time>
      </trkpt>
      <trkpt lat="44.46625" lon="2.42052">
        <ele>321</ele>
        <time>2008-10-07T10:30:15Z</time>
      </trkpt>
      <trkpt lat="44.46633" lon="2.42046">
        <ele>321</ele>
        <time>2008-10-07T10:30:23Z</time>
      </trkpt>
      <trkpt lat="44.4664" lon="2.42037">
        <ele>321</ele>
        <time>2008-10-07T10:30:33Z</time>
      </trkpt>
      <trkpt lat="44.46647" lon="2.4203">
        <ele>326</ele>
        <time>2008-10-07T10:30:42Z</time>
      </trkpt>
      <trkpt lat="44.46655" lon="2.42023">
        <ele>326</ele>
        <time>2008-10-07T10:30:51Z</time>
      </trkpt>
      <trkpt lat="44.46664" lon="2.4202">
        <ele>326</ele>
        <time>2008-10-07T10:31:01Z</time>
      </trkpt>
      <trkpt lat="44.46673" lon="2.42019">
        <ele>326</ele>
        <time>2008-10-07T10:31:10Z</time>
      </trkpt>
      <trkpt lat="44.46683" lon="2.42019">
        <ele>326</ele>
        <time>2008-10-07T10:31:19Z</time>
      </trkpt>
      <trkpt lat="44.46692" lon="2.42016">
        <ele>326</ele>
        <time>2008-10-07T10:31:28Z</time>
      </trkpt>
      <trkpt lat="44.467" lon="2.42012">
        <ele>326</ele>
        <time>2008-10-07T10:31:38Z</time>
      </trkpt>
      <trkpt lat="44.46708" lon="2.42005">
        <ele>331</ele>
        <time>2008-10-07T10:31:50Z</time>
      </trkpt>
      <trkpt lat="44.46716" lon="2.42001">
        <ele>331</ele>
        <time>2008-10-07T10:31:59Z</time>
      </trkpt>
      <trkpt lat="44.46725" lon="2.41996">
        <ele>331</ele>
        <time>2008-10-07T10:32:09Z</time>
      </trkpt>
      <trkpt lat="44.46733" lon="2.41992">
        <ele>331</ele>
        <time>2008-10-07T10:32:19Z</time>
      </trkpt>
      <trkpt lat="44.46742" lon="2.41986">
        <ele>337</ele>
        <time>2008-10-07T10:32:29Z</time>
      </trkpt>
      <trkpt lat="44.4675" lon="2.4198">
        <ele>337</ele>
        <time>2008-10-07T10:32:38Z</time>
      </trkpt>
      <trkpt lat="44.46759" lon="2.41974">
        <ele>337</ele>
        <time>2008-10-07T10:32:47Z</time>
      </trkpt>
      <trkpt lat="44.46768" lon="2.41968">
        <ele>337</ele>
        <time>2008-10-07T10:32:57Z</time>
      </trkpt>
      <trkpt lat="44.46775" lon="2.41961">
        <ele>337</ele>
        <time>2008-10-07T10:33:07Z</time>
      </trkpt>
      <trkpt lat="44.46784" lon="2.41957">
        <ele>337</ele>
        <time>2008-10-07T10:33:16Z</time>
      </trkpt>
      <trkpt lat="44.46793" lon="2.41954">
        <ele>337</ele>
        <time>2008-10-07T10:33:25Z</time>
      </trkpt>
      <trkpt lat="44.46802" lon="2.41956">
        <ele>337</ele>
        <time>2008-10-07T10:33:35Z</time>
      </trkpt>
      <trkpt lat="44.46811" lon="2.41958">
        <ele>343</ele>
        <time>2008-10-07T10:33:45Z</time>
      </trkpt>
      <trkpt lat="44.4682" lon="2.41956">
        <ele>343</ele>
        <time>2008-10-07T10:33:55Z</time>
      </trkpt>
      <trkpt lat="44.46829" lon="2.41957">
        <ele>343</ele>
        <time>2008-10-07T10:34:14Z</time>
      </trkpt>
      <trkpt lat="44.46837" lon="2.41952">
        <ele>343</ele>
        <time>2008-10-07T10:34:44Z</time>
      </trkpt>
      <trkpt lat="44.46846" lon="2.41951">
        <ele>343</ele>
        <time>2008-10-07T10:34:56Z</time>
      </trkpt>
      <trkpt lat="44.46855" lon="2.41948">
        <ele>343</ele>
        <time>2008-10-07T10:35:03Z</time>
      </trkpt>
      <trkpt lat="44.46864" lon="2.41946">
        <ele>343</ele>
        <time>2008-10-07T10:35:10Z</time>
      </trkpt>
      <trkpt lat="44.46873" lon="2.41945">
        <ele>343</ele>
        <time>2008-10-07T10:35:18Z</time>
      </trkpt>
      <trkpt lat="44.46882" lon="2.41942">
        <ele>343</ele>
        <time>2008-10-07T10:35:26Z</time>
      </trkpt>
      <trkpt lat="44.46892" lon="2.41941">
        <ele>343</ele>
        <time>2008-10-07T10:35:34Z</time>
      </trkpt>
      <trkpt lat="44.46901" lon="2.41939">
        <ele>343</ele>
        <time>2008-10-07T10:35:43Z</time>
      </trkpt>
      <trkpt lat="44.46909" lon="2.41935">
        <ele>343</ele>
        <time>2008-10-07T10:35:51Z</time>
      </trkpt>
      <trkpt lat="44.46918" lon="2.41931">
        <ele>343</ele>
        <time>2008-10-07T10:35:59Z</time>
      </trkpt>
      <trkpt lat="44.46927" lon="2.41932">
        <ele>343</ele>
        <time>2008-10-07T10:36:08Z</time>
      </trkpt>
      <trkpt lat="44.46937" lon="2.41933">
        <ele>350</ele>
        <time>2008-10-07T10:36:19Z</time>
      </trkpt>
      <trkpt lat="44.46946" lon="2.41931">
        <ele>350</ele>
        <time>2008-10-07T10:36:29Z</time>
      </trkpt>
      <trkpt lat="44.46955" lon="2.41928">
        <ele>350</ele>
        <time>2008-10-07T10:36:37Z</time>
      </trkpt>
      <trkpt lat="44.46963" lon="2.41924">
        <ele>350</ele>
        <time>2008-10-07T10:36:45Z</time>
      </trkpt>
      <trkpt lat="44.46972" lon="2.41923">
        <ele>350</ele>
        <time>2008-10-07T10:36:54Z</time>
      </trkpt>
      <trkpt lat="44.46981" lon="2.4192">
        <ele>356</ele>
        <time>2008-10-07T10:37:02Z</time>
      </trkpt>
      <trkpt lat="44.46988" lon="2.4191">
        <ele>356</ele>
        <time>2008-10-07T10:37:12Z</time>
      </trkpt>
      <trkpt lat="44.46991" lon="2.41898">
        <ele>356</ele>
        <time>2008-10-07T10:37:19Z</time>
      </trkpt>
      <trkpt lat="44.46994" lon="2.41887">
        <ele>356</ele>
        <time>2008-10-07T10:37:27Z</time>
      </trkpt>
      <trkpt lat="44.46997" lon="2.41874">
        <ele>356</ele>
        <time>2008-10-07T10:37:35Z</time>
      </trkpt>
      <trkpt lat="44.47001" lon="2.41862">
        <ele>356</ele>
        <time>2008-10-07T10:37:43Z</time>
      </trkpt>
      <trkpt lat="44.47005" lon="2.41851">
        <ele>356</ele>
        <time>2008-10-07T10:37:51Z</time>
      </trkpt>
      <trkpt lat="44.47006" lon="2.41837">
        <ele>356</ele>
        <time>2008-10-07T10:37:59Z</time>
      </trkpt>
      <trkpt lat="44.47008" lon="2.41824">
        <ele>356</ele>
        <time>2008-10-07T10:38:07Z</time>
      </trkpt>
      <trkpt lat="44.4701" lon="2.41811">
        <ele>356</ele>
        <time>2008-10-07T10:38:14Z</time>
      </trkpt>
      <trkpt lat="44.47009" lon="2.41798">
        <ele>356</ele>
        <time>2008-10-07T10:38:22Z</time>
      </trkpt>
      <trkpt lat="44.47011" lon="2.41784">
        <ele>356</ele>
        <time>2008-10-07T10:38:29Z</time>
      </trkpt>
      <trkpt lat="44.47013" lon="2.41773">
        <ele>356</ele>
        <time>2008-10-07T10:38:36Z</time>
      </trkpt>
      <trkpt lat="44.47018" lon="2.41761">
        <ele>356</ele>
        <time>2008-10-07T10:38:43Z</time>
      </trkpt>
      <trkpt lat="44.47022" lon="2.41749">
        <ele>350</ele>
        <time>2008-10-07T10:38:50Z</time>
      </trkpt>
      <trkpt lat="44.47026" lon="2.41737">
        <ele>350</ele>
        <time>2008-10-07T10:38:59Z</time>
      </trkpt>
      <trkpt lat="44.47031" lon="2.41726">
        <ele>350</ele>
        <time>2008-10-07T10:39:08Z</time>
      </trkpt>
      <trkpt lat="44.47036" lon="2.41714">
        <ele>350</ele>
        <time>2008-10-07T10:39:16Z</time>
      </trkpt>
      <trkpt lat="44.47041" lon="2.41703">
        <ele>350</ele>
        <time>2008-10-07T10:39:24Z</time>
      </trkpt>
      <trkpt lat="44.47046" lon="2.41693">
        <ele>350</ele>
        <time>2008-10-07T10:39:31Z</time>
      </trkpt>
      <trkpt lat="44.47051" lon="2.41682">
        <ele>350</ele>
        <time>2008-10-07T10:39:38Z</time>
      </trkpt>
      <trkpt lat="44.47056" lon="2.41672">
        <ele>350</ele>
        <time>2008-10-07T10:39:45Z</time>
      </trkpt>
      <trkpt lat="44.47062" lon="2.41662">
        <ele>350</ele>
        <time>2008-10-07T10:39:52Z</time>
      </trkpt>
      <trkpt lat="44.47069" lon="2.41651">
        <ele>350</ele>
        <time>2008-10-07T10:39:59Z</time>
      </trkpt>
      <trkpt lat="44.47074" lon="2.41641">
        <ele>350</ele>
        <time>2008-10-07T10:40:06Z</time>
      </trkpt>
      <trkpt lat="44.47079" lon="2.41632">
        <ele>350</ele>
        <time>2008-10-07T10:40:13Z</time>
      </trkpt>
      <trkpt lat="44.47083" lon="2.4162">
        <ele>350</ele>
        <time>2008-10-07T10:40:20Z</time>
      </trkpt>
      <trkpt lat="44.47084" lon="2.41606">
        <ele>350</ele>
        <time>2008-10-07T10:40:28Z</time>
      </trkpt>
      <trkpt lat="44.47084" lon="2.41594">
        <ele>345</ele>
        <time>2008-10-07T10:40:35Z</time>
      </trkpt>
      <trkpt lat="44.47084" lon="2.4158">
        <ele>345</ele>
        <time>2008-10-07T10:40:45Z</time>
      </trkpt>
      <trkpt lat="44.47083" lon="2.41568">
        <ele>345</ele>
        <time>2008-10-07T10:40:52Z</time>
      </trkpt>
      <trkpt lat="44.47084" lon="2.41555">
        <ele>345</ele>
        <time>2008-10-07T10:40:59Z</time>
      </trkpt>
      <trkpt lat="44.47089" lon="2.41543">
        <ele>345</ele>
        <time>2008-10-07T10:41:08Z</time>
      </trkpt>
      <trkpt lat="44.47095" lon="2.41533">
        <ele>345</ele>
        <time>2008-10-07T10:41:16Z</time>
      </trkpt>
      <trkpt lat="44.471" lon="2.41523">
        <ele>345</ele>
        <time>2008-10-07T10:41:23Z</time>
      </trkpt>
      <trkpt lat="44.47106" lon="2.41513">
        <ele>345</ele>
        <time>2008-10-07T10:41:30Z</time>
      </trkpt>
      <trkpt lat="44.47111" lon="2.41503">
        <ele>345</ele>
        <time>2008-10-07T10:41:37Z</time>
      </trkpt>
      <trkpt lat="44.47117" lon="2.41493">
        <ele>345</ele>
        <time>2008-10-07T10:41:44Z</time>
      </trkpt>
      <trkpt lat="44.47123" lon="2.41482">
        <ele>345</ele>
        <time>2008-10-07T10:41:52Z</time>
      </trkpt>
      <trkpt lat="44.47128" lon="2.41473">
        <ele>345</ele>
        <time>2008-10-07T10:41:59Z</time>
      </trkpt>
      <trkpt lat="44.47133" lon="2.41463">
        <ele>345</ele>
        <time>2008-10-07T10:42:06Z</time>
      </trkpt>
      <trkpt lat="44.47139" lon="2.41452">
        <ele>345</ele>
        <time>2008-10-07T10:42:13Z</time>
      </trkpt>
      <trkpt lat="44.47144" lon="2.41442">
        <ele>345</ele>
        <time>2008-10-07T10:42:20Z</time>
      </trkpt>
      <trkpt lat="44.47149" lon="2.41431">
        <ele>345</ele>
        <time>2008-10-07T10:42:27Z</time>
      </trkpt>
      <trkpt lat="44.47154" lon="2.4142">
        <ele>345</ele>
        <time>2008-10-07T10:42:34Z</time>
      </trkpt>
      <trkpt lat="44.47159" lon="2.41411">
        <ele>345</ele>
        <time>2008-10-07T10:42:40Z</time>
      </trkpt>
      <trkpt lat="44.47164" lon="2.41401">
        <ele>345</ele>
        <time>2008-10-07T10:42:47Z</time>
      </trkpt>
      <trkpt lat="44.47168" lon="2.41388">
        <ele>345</ele>
        <time>2008-10-07T10:42:55Z</time>
      </trkpt>
      <trkpt lat="44.47173" lon="2.41377">
        <ele>345</ele>
        <time>2008-10-07T10:43:02Z</time>
      </trkpt>
      <trkpt lat="44.47178" lon="2.41366">
        <ele>345</ele>
        <time>2008-10-07T10:43:10Z</time>
      </trkpt>
      <trkpt lat="44.47183" lon="2.41353">
        <ele>345</ele>
        <time>2008-10-07T10:43:18Z</time>
      </trkpt>
      <trkpt lat="44.47188" lon="2.41342">
        <ele>345</ele>
        <time>2008-10-07T10:43:26Z</time>
      </trkpt>
      <trkpt lat="44.47193" lon="2.41331">
        <ele>345</ele>
        <time>2008-10-07T10:43:34Z</time>
      </trkpt>
      <trkpt lat="44.47197" lon="2.41319">
        <ele>345</ele>
        <time>2008-10-07T10:43:42Z</time>
      </trkpt>
      <trkpt lat="44.47202" lon="2.41308">
        <ele>345</ele>
        <time>2008-10-07T10:43:49Z</time>
      </trkpt>
      <trkpt lat="44.47206" lon="2.41297">
        <ele>345</ele>
        <time>2008-10-07T10:43:57Z</time>
      </trkpt>
      <trkpt lat="44.47211" lon="2.41285">
        <ele>345</ele>
        <time>2008-10-07T10:44:05Z</time>
      </trkpt>
      <trkpt lat="44.47215" lon="2.41273">
        <ele>345</ele>
        <time>2008-10-07T10:44:13Z</time>
      </trkpt>
      <trkpt lat="44.47221" lon="2.41263">
        <ele>345</ele>
        <time>2008-10-07T10:44:21Z</time>
      </trkpt>
      <trkpt lat="44.47225" lon="2.41253">
        <ele>345</ele>
        <time>2008-10-07T10:44:28Z</time>
      </trkpt>
      <trkpt lat="44.4723" lon="2.4124">
        <ele>345</ele>
        <time>2008-10-07T10:44:37Z</time>
      </trkpt>
      <trkpt lat="44.47233" lon="2.41228">
        <ele>345</ele>
        <time>2008-10-07T10:44:44Z</time>
      </trkpt>
      <trkpt lat="44.47239" lon="2.41217">
        <ele>340</ele>
        <time>2008-10-07T10:44:51Z</time>
      </trkpt>
      <trkpt lat="44.47243" lon="2.41204">
        <ele>340</ele>
        <time>2008-10-07T10:44:59Z</time>
      </trkpt>
      <trkpt lat="44.47247" lon="2.41191">
        <ele>340</ele>
        <time>2008-10-07T10:45:07Z</time>
      </trkpt>
      <trkpt lat="44.47249" lon="2.41179">
        <ele>340</ele>
        <time>2008-10-07T10:45:15Z</time>
      </trkpt>
      <trkpt lat="44.4725" lon="2.41165">
        <ele>340</ele>
        <time>2008-10-07T10:45:23Z</time>
      </trkpt>
      <trkpt lat="44.47247" lon="2.41153">
        <ele>340</ele>
        <time>2008-10-07T10:45:31Z</time>
      </trkpt>
      <trkpt lat="44.47239" lon="2.41146">
        <ele>340</ele>
        <time>2008-10-07T10:45:43Z</time>
      </trkpt>
      <trkpt lat="44.47232" lon="2.41139">
        <ele>340</ele>
        <time>2008-10-07T10:45:50Z</time>
      </trkpt>
      <trkpt lat="44.47221" lon="2.41142">
        <ele>340</ele>
        <time>2008-10-07T10:46:00Z</time>
      </trkpt>
      <trkpt lat="44.47212" lon="2.41147">
        <ele>340</ele>
        <time>2008-10-07T10:46:06Z</time>
      </trkpt>
      <trkpt lat="44.47203" lon="2.41147">
        <ele>340</ele>
        <time>2008-10-07T10:46:12Z</time>
      </trkpt>
      <trkpt lat="44.47199" lon="2.41135">
        <ele>340</ele>
        <time>2008-10-07T10:46:18Z</time>
      </trkpt>
      <trkpt lat="44.47196" lon="2.41122">
        <ele>340</ele>
        <time>2008-10-07T10:46:25Z</time>
      </trkpt>
      <trkpt lat="44.4719" lon="2.41111">
        <ele>340</ele>
        <time>2008-10-07T10:46:33Z</time>
      </trkpt>
      <trkpt lat="44.47183" lon="2.41101">
        <ele>340</ele>
        <time>2008-10-07T10:46:42Z</time>
      </trkpt>
      <trkpt lat="44.47175" lon="2.41095">
        <ele>340</ele>
        <time>2008-10-07T10:46:51Z</time>
      </trkpt>
      <trkpt lat="44.47166" lon="2.41095">
        <ele>340</ele>
        <time>2008-10-07T10:47:01Z</time>
      </trkpt>
      <trkpt lat="44.47156" lon="2.41093">
        <ele>340</ele>
        <time>2008-10-07T10:47:10Z</time>
      </trkpt>
      <trkpt lat="44.47148" lon="2.41088">
        <ele>340</ele>
        <time>2008-10-07T10:47:20Z</time>
      </trkpt>
      <trkpt lat="44.47141" lon="2.41079">
        <ele>340</ele>
        <time>2008-10-07T10:47:30Z</time>
      </trkpt>
      <trkpt lat="44.47136" lon="2.41068">
        <ele>334</ele>
        <time>2008-10-07T10:47:38Z</time>
      </trkpt>
      <trkpt lat="44.47138" lon="2.41056">
        <ele>334</ele>
        <time>2008-10-07T10:47:47Z</time>
      </trkpt>
      <trkpt lat="44.47139" lon="2.41043">
        <ele>334</ele>
        <time>2008-10-07T10:48:00Z</time>
      </trkpt>
    </trkseg>
  </trk>
</gpx>